<?xml version="1.0" encoding="UTF-8" standalone="no" ?>
<gpx xmlns="http://www.topografix.com/GPX/1/1" xmlns:xsi="http://www.w3.org/2001/XMLSchema-instance" xsi:schemaLocation="http://www.topografix.com/GPX/1/1 http://www.topografix.com/GPX/1/1/gpx.xsd" version="1.1" creator="VisuGPX - https://www.visugpx.com">
  <metadata>
    <name>VTT du 16/08/2018</name>
    <desc><![CDATA[Vtt du 16/08/2018 Avec Luc-Henri, Pierrick, Anne et Philippe, Christiane et Denis, Laurence et Rolland, Fabrice pour l'apéro Didier Archi, Simonator et Marc.]]></desc>
  </metadata>
  <trk>
    <name><![CDATA[VTT du 16/08/2018_1]]></name>
    <trkseg>
      <trkpt lat="43.95331" lon="1.86858">
        <ele>277</ele>
        <time>2018-08-16T17:08:07Z</time>
      </trkpt>
      <trkpt lat="43.95316" lon="1.8689">
        <ele>284</ele>
        <time>2018-08-16T17:08:33Z</time>
      </trkpt>
      <trkpt lat="43.95315" lon="1.86917">
        <ele>284</ele>
        <time>2018-08-16T17:08:39Z</time>
      </trkpt>
      <trkpt lat="43.95326" lon="1.86933">
        <ele>280</ele>
        <time>2018-08-16T17:08:45Z</time>
      </trkpt>
      <trkpt lat="43.95338" lon="1.86945">
        <ele>276</ele>
        <time>2018-08-16T17:08:51Z</time>
      </trkpt>
      <trkpt lat="43.95351" lon="1.86957">
        <ele>273</ele>
        <time>2018-08-16T17:08:58Z</time>
      </trkpt>
      <trkpt lat="43.95361" lon="1.86968">
        <ele>273</ele>
        <time>2018-08-16T17:09:04Z</time>
      </trkpt>
      <trkpt lat="43.95375" lon="1.86982">
        <ele>273</ele>
        <time>2018-08-16T17:09:10Z</time>
      </trkpt>
      <trkpt lat="43.95387" lon="1.86992">
        <ele>273</ele>
        <time>2018-08-16T17:09:16Z</time>
      </trkpt>
      <trkpt lat="43.95398" lon="1.87001">
        <ele>273</ele>
        <time>2018-08-16T17:09:22Z</time>
      </trkpt>
      <trkpt lat="43.95408" lon="1.87009">
        <ele>271</ele>
        <time>2018-08-16T17:09:28Z</time>
      </trkpt>
      <trkpt lat="43.95418" lon="1.87021">
        <ele>269</ele>
        <time>2018-08-16T17:09:34Z</time>
      </trkpt>
      <trkpt lat="43.9543" lon="1.87013">
        <ele>269</ele>
        <time>2018-08-16T17:09:40Z</time>
      </trkpt>
      <trkpt lat="43.95446" lon="1.86997">
        <ele>268</ele>
        <time>2018-08-16T17:09:46Z</time>
      </trkpt>
      <trkpt lat="43.95458" lon="1.86985">
        <ele>267</ele>
        <time>2018-08-16T17:09:52Z</time>
      </trkpt>
      <trkpt lat="43.95467" lon="1.86969">
        <ele>265</ele>
        <time>2018-08-16T17:09:58Z</time>
      </trkpt>
      <trkpt lat="43.95474" lon="1.86949">
        <ele>264</ele>
        <time>2018-08-16T17:10:04Z</time>
      </trkpt>
      <trkpt lat="43.9548" lon="1.86922">
        <ele>264</ele>
        <time>2018-08-16T17:10:11Z</time>
      </trkpt>
      <trkpt lat="43.95484" lon="1.86906">
        <ele>264</ele>
        <time>2018-08-16T17:10:17Z</time>
      </trkpt>
      <trkpt lat="43.95488" lon="1.86894">
        <ele>264</ele>
        <time>2018-08-16T17:10:24Z</time>
      </trkpt>
      <trkpt lat="43.95492" lon="1.86884">
        <ele>264</ele>
        <time>2018-08-16T17:10:31Z</time>
      </trkpt>
      <trkpt lat="43.95488" lon="1.86882">
        <ele>264</ele>
        <time>2018-08-16T17:10:42Z</time>
      </trkpt>
      <trkpt lat="43.95487" lon="1.86891">
        <ele>264</ele>
        <time>2018-08-16T17:10:48Z</time>
      </trkpt>
      <trkpt lat="43.95483" lon="1.86909">
        <ele>265</ele>
        <time>2018-08-16T17:10:54Z</time>
      </trkpt>
      <trkpt lat="43.95475" lon="1.86943">
        <ele>268</ele>
        <time>2018-08-16T17:11:00Z</time>
      </trkpt>
      <trkpt lat="43.95466" lon="1.8698">
        <ele>269</ele>
        <time>2018-08-16T17:11:06Z</time>
      </trkpt>
      <trkpt lat="43.95474" lon="1.87">
        <ele>270</ele>
        <time>2018-08-16T17:11:12Z</time>
      </trkpt>
      <trkpt lat="43.95489" lon="1.87019">
        <ele>270</ele>
        <time>2018-08-16T17:11:18Z</time>
      </trkpt>
      <trkpt lat="43.95504" lon="1.87043">
        <ele>270</ele>
        <time>2018-08-16T17:11:24Z</time>
      </trkpt>
      <trkpt lat="43.95516" lon="1.87064">
        <ele>270</ele>
        <time>2018-08-16T17:11:30Z</time>
      </trkpt>
      <trkpt lat="43.95529" lon="1.87082">
        <ele>270</ele>
        <time>2018-08-16T17:11:36Z</time>
      </trkpt>
      <trkpt lat="43.95538" lon="1.87096">
        <ele>270</ele>
        <time>2018-08-16T17:11:42Z</time>
      </trkpt>
      <trkpt lat="43.95548" lon="1.87111">
        <ele>270</ele>
        <time>2018-08-16T17:11:48Z</time>
      </trkpt>
      <trkpt lat="43.95558" lon="1.87126">
        <ele>270</ele>
        <time>2018-08-16T17:11:54Z</time>
      </trkpt>
      <trkpt lat="43.95567" lon="1.8714">
        <ele>270</ele>
        <time>2018-08-16T17:12:00Z</time>
      </trkpt>
      <trkpt lat="43.95577" lon="1.87153">
        <ele>270</ele>
        <time>2018-08-16T17:12:06Z</time>
      </trkpt>
      <trkpt lat="43.95585" lon="1.87163">
        <ele>270</ele>
        <time>2018-08-16T17:12:12Z</time>
      </trkpt>
      <trkpt lat="43.95593" lon="1.87164">
        <ele>270</ele>
        <time>2018-08-16T17:12:18Z</time>
      </trkpt>
      <trkpt lat="43.95595" lon="1.87153">
        <ele>270</ele>
        <time>2018-08-16T17:12:24Z</time>
      </trkpt>
      <trkpt lat="43.95598" lon="1.87143">
        <ele>270</ele>
        <time>2018-08-16T17:12:31Z</time>
      </trkpt>
      <trkpt lat="43.95599" lon="1.87134">
        <ele>270</ele>
        <time>2018-08-16T17:12:38Z</time>
      </trkpt>
      <trkpt lat="43.95597" lon="1.87136">
        <ele>274</ele>
        <time>2018-08-16T17:12:56Z</time>
      </trkpt>
      <trkpt lat="43.95596" lon="1.87136">
        <ele>277</ele>
        <time>2018-08-16T17:13:03Z</time>
      </trkpt>
      <trkpt lat="43.95595" lon="1.87138">
        <ele>282</ele>
        <time>2018-08-16T17:13:27Z</time>
      </trkpt>
      <trkpt lat="43.95594" lon="1.87144">
        <ele>282</ele>
        <time>2018-08-16T17:13:34Z</time>
      </trkpt>
      <trkpt lat="43.95594" lon="1.87151">
        <ele>282</ele>
        <time>2018-08-16T17:13:40Z</time>
      </trkpt>
      <trkpt lat="43.95595" lon="1.8716">
        <ele>282</ele>
        <time>2018-08-16T17:13:47Z</time>
      </trkpt>
      <trkpt lat="43.95597" lon="1.87142">
        <ele>282</ele>
        <time>2018-08-16T17:13:53Z</time>
      </trkpt>
      <trkpt lat="43.95597" lon="1.87135">
        <ele>282</ele>
        <time>2018-08-16T17:14:14Z</time>
      </trkpt>
      <trkpt lat="43.95599" lon="1.87153">
        <ele>280</ele>
        <time>2018-08-16T17:14:20Z</time>
      </trkpt>
      <trkpt lat="43.956" lon="1.87158">
        <ele>280</ele>
        <time>2018-08-16T17:14:28Z</time>
      </trkpt>
      <trkpt lat="43.95604" lon="1.87167">
        <ele>280</ele>
        <time>2018-08-16T17:14:34Z</time>
      </trkpt>
      <trkpt lat="43.95607" lon="1.87181">
        <ele>282</ele>
        <time>2018-08-16T17:14:40Z</time>
      </trkpt>
      <trkpt lat="43.9561" lon="1.87192">
        <ele>285</ele>
        <time>2018-08-16T17:14:47Z</time>
      </trkpt>
      <trkpt lat="43.95616" lon="1.87187">
        <ele>285</ele>
        <time>2018-08-16T17:14:53Z</time>
      </trkpt>
      <trkpt lat="43.95625" lon="1.87179">
        <ele>285</ele>
        <time>2018-08-16T17:14:59Z</time>
      </trkpt>
      <trkpt lat="43.95634" lon="1.87168">
        <ele>285</ele>
        <time>2018-08-16T17:15:05Z</time>
      </trkpt>
      <trkpt lat="43.9565" lon="1.87157">
        <ele>285</ele>
        <time>2018-08-16T17:15:11Z</time>
      </trkpt>
      <trkpt lat="43.95667" lon="1.87142">
        <ele>285</ele>
        <time>2018-08-16T17:15:17Z</time>
      </trkpt>
      <trkpt lat="43.95691" lon="1.87115">
        <ele>285</ele>
        <time>2018-08-16T17:15:23Z</time>
      </trkpt>
      <trkpt lat="43.95719" lon="1.87091">
        <ele>285</ele>
        <time>2018-08-16T17:15:29Z</time>
      </trkpt>
      <trkpt lat="43.9573" lon="1.87075">
        <ele>282</ele>
        <time>2018-08-16T17:15:35Z</time>
      </trkpt>
      <trkpt lat="43.95745" lon="1.87075">
        <ele>277</ele>
        <time>2018-08-16T17:15:41Z</time>
      </trkpt>
      <trkpt lat="43.95751" lon="1.87091">
        <ele>276</ele>
        <time>2018-08-16T17:15:47Z</time>
      </trkpt>
      <trkpt lat="43.95756" lon="1.87102">
        <ele>274</ele>
        <time>2018-08-16T17:15:53Z</time>
      </trkpt>
      <trkpt lat="43.95765" lon="1.87114">
        <ele>273</ele>
        <time>2018-08-16T17:15:59Z</time>
      </trkpt>
      <trkpt lat="43.95773" lon="1.87125">
        <ele>273</ele>
        <time>2018-08-16T17:16:05Z</time>
      </trkpt>
      <trkpt lat="43.9579" lon="1.8713">
        <ele>273</ele>
        <time>2018-08-16T17:16:11Z</time>
      </trkpt>
      <trkpt lat="43.95811" lon="1.87136">
        <ele>273</ele>
        <time>2018-08-16T17:16:17Z</time>
      </trkpt>
      <trkpt lat="43.95835" lon="1.87144">
        <ele>273</ele>
        <time>2018-08-16T17:16:23Z</time>
      </trkpt>
      <trkpt lat="43.95857" lon="1.87155">
        <ele>273</ele>
        <time>2018-08-16T17:16:29Z</time>
      </trkpt>
      <trkpt lat="43.95884" lon="1.87172">
        <ele>271</ele>
        <time>2018-08-16T17:16:35Z</time>
      </trkpt>
      <trkpt lat="43.95907" lon="1.87194">
        <ele>270</ele>
        <time>2018-08-16T17:16:41Z</time>
      </trkpt>
      <trkpt lat="43.95923" lon="1.87225">
        <ele>269</ele>
        <time>2018-08-16T17:16:47Z</time>
      </trkpt>
      <trkpt lat="43.95933" lon="1.87259">
        <ele>268</ele>
        <time>2018-08-16T17:16:53Z</time>
      </trkpt>
      <trkpt lat="43.9594" lon="1.87293">
        <ele>268</ele>
        <time>2018-08-16T17:16:59Z</time>
      </trkpt>
      <trkpt lat="43.95947" lon="1.87326">
        <ele>268</ele>
        <time>2018-08-16T17:17:05Z</time>
      </trkpt>
      <trkpt lat="43.95955" lon="1.87363">
        <ele>268</ele>
        <time>2018-08-16T17:17:11Z</time>
      </trkpt>
      <trkpt lat="43.95963" lon="1.87397">
        <ele>268</ele>
        <time>2018-08-16T17:17:17Z</time>
      </trkpt>
      <trkpt lat="43.95969" lon="1.8743">
        <ele>268</ele>
        <time>2018-08-16T17:17:23Z</time>
      </trkpt>
      <trkpt lat="43.95974" lon="1.87467">
        <ele>268</ele>
        <time>2018-08-16T17:17:29Z</time>
      </trkpt>
      <trkpt lat="43.95978" lon="1.87501">
        <ele>268</ele>
        <time>2018-08-16T17:17:35Z</time>
      </trkpt>
      <trkpt lat="43.95982" lon="1.87539">
        <ele>268</ele>
        <time>2018-08-16T17:17:41Z</time>
      </trkpt>
      <trkpt lat="43.95985" lon="1.87573">
        <ele>266</ele>
        <time>2018-08-16T17:17:47Z</time>
      </trkpt>
      <trkpt lat="43.95994" lon="1.87594">
        <ele>266</ele>
        <time>2018-08-16T17:17:53Z</time>
      </trkpt>
      <trkpt lat="43.96008" lon="1.87582">
        <ele>266</ele>
        <time>2018-08-16T17:17:59Z</time>
      </trkpt>
      <trkpt lat="43.96028" lon="1.87581">
        <ele>266</ele>
        <time>2018-08-16T17:18:05Z</time>
      </trkpt>
      <trkpt lat="43.96052" lon="1.87583">
        <ele>266</ele>
        <time>2018-08-16T17:18:11Z</time>
      </trkpt>
      <trkpt lat="43.96066" lon="1.87566">
        <ele>266</ele>
        <time>2018-08-16T17:18:17Z</time>
      </trkpt>
      <trkpt lat="43.96075" lon="1.87554">
        <ele>266</ele>
        <time>2018-08-16T17:18:23Z</time>
      </trkpt>
      <trkpt lat="43.96083" lon="1.87554">
        <ele>266</ele>
        <time>2018-08-16T17:18:30Z</time>
      </trkpt>
      <trkpt lat="43.96086" lon="1.87549">
        <ele>268</ele>
        <time>2018-08-16T17:18:36Z</time>
      </trkpt>
      <trkpt lat="43.9609" lon="1.87541">
        <ele>269</ele>
        <time>2018-08-16T17:18:42Z</time>
      </trkpt>
      <trkpt lat="43.961" lon="1.87523">
        <ele>269</ele>
        <time>2018-08-16T17:18:48Z</time>
      </trkpt>
      <trkpt lat="43.96112" lon="1.87506">
        <ele>269</ele>
        <time>2018-08-16T17:18:54Z</time>
      </trkpt>
      <trkpt lat="43.96126" lon="1.87474">
        <ele>269</ele>
        <time>2018-08-16T17:19:00Z</time>
      </trkpt>
      <trkpt lat="43.96149" lon="1.87452">
        <ele>269</ele>
        <time>2018-08-16T17:19:06Z</time>
      </trkpt>
      <trkpt lat="43.96178" lon="1.87446">
        <ele>267</ele>
        <time>2018-08-16T17:19:12Z</time>
      </trkpt>
      <trkpt lat="43.96209" lon="1.87443">
        <ele>265</ele>
        <time>2018-08-16T17:19:18Z</time>
      </trkpt>
      <trkpt lat="43.96241" lon="1.8746">
        <ele>264</ele>
        <time>2018-08-16T17:19:24Z</time>
      </trkpt>
      <trkpt lat="43.96274" lon="1.87482">
        <ele>261</ele>
        <time>2018-08-16T17:19:30Z</time>
      </trkpt>
      <trkpt lat="43.96307" lon="1.87507">
        <ele>255</ele>
        <time>2018-08-16T17:19:36Z</time>
      </trkpt>
      <trkpt lat="43.96345" lon="1.87512">
        <ele>249</ele>
        <time>2018-08-16T17:19:42Z</time>
      </trkpt>
      <trkpt lat="43.96376" lon="1.87509">
        <ele>243</ele>
        <time>2018-08-16T17:19:48Z</time>
      </trkpt>
      <trkpt lat="43.96407" lon="1.8751">
        <ele>234</ele>
        <time>2018-08-16T17:19:54Z</time>
      </trkpt>
      <trkpt lat="43.96434" lon="1.87494">
        <ele>229</ele>
        <time>2018-08-16T17:20:00Z</time>
      </trkpt>
      <trkpt lat="43.96461" lon="1.87481">
        <ele>229</ele>
        <time>2018-08-16T17:20:06Z</time>
      </trkpt>
      <trkpt lat="43.96496" lon="1.87458">
        <ele>229</ele>
        <time>2018-08-16T17:20:12Z</time>
      </trkpt>
      <trkpt lat="43.96519" lon="1.8743">
        <ele>229</ele>
        <time>2018-08-16T17:20:18Z</time>
      </trkpt>
      <trkpt lat="43.96542" lon="1.8742">
        <ele>228</ele>
        <time>2018-08-16T17:20:24Z</time>
      </trkpt>
      <trkpt lat="43.96558" lon="1.87408">
        <ele>226</ele>
        <time>2018-08-16T17:20:30Z</time>
      </trkpt>
      <trkpt lat="43.96573" lon="1.87383">
        <ele>224</ele>
        <time>2018-08-16T17:20:36Z</time>
      </trkpt>
      <trkpt lat="43.96589" lon="1.87361">
        <ele>220</ele>
        <time>2018-08-16T17:20:42Z</time>
      </trkpt>
      <trkpt lat="43.96598" lon="1.87324">
        <ele>216</ele>
        <time>2018-08-16T17:20:48Z</time>
      </trkpt>
      <trkpt lat="43.96608" lon="1.87292">
        <ele>215</ele>
        <time>2018-08-16T17:20:54Z</time>
      </trkpt>
      <trkpt lat="43.96622" lon="1.87261">
        <ele>215</ele>
        <time>2018-08-16T17:21:00Z</time>
      </trkpt>
      <trkpt lat="43.96633" lon="1.87225">
        <ele>215</ele>
        <time>2018-08-16T17:21:06Z</time>
      </trkpt>
      <trkpt lat="43.96647" lon="1.87192">
        <ele>215</ele>
        <time>2018-08-16T17:21:12Z</time>
      </trkpt>
      <trkpt lat="43.96672" lon="1.87191">
        <ele>215</ele>
        <time>2018-08-16T17:21:18Z</time>
      </trkpt>
      <trkpt lat="43.96693" lon="1.87199">
        <ele>212</ele>
        <time>2018-08-16T17:21:24Z</time>
      </trkpt>
      <trkpt lat="43.96697" lon="1.87198">
        <ele>206</ele>
        <time>2018-08-16T17:21:30Z</time>
      </trkpt>
      <trkpt lat="43.967" lon="1.87198">
        <ele>203</ele>
        <time>2018-08-16T17:21:36Z</time>
      </trkpt>
      <trkpt lat="43.96702" lon="1.87198">
        <ele>195</ele>
        <time>2018-08-16T17:21:50Z</time>
      </trkpt>
      <trkpt lat="43.96703" lon="1.87198">
        <ele>193</ele>
        <time>2018-08-16T17:21:58Z</time>
      </trkpt>
      <trkpt lat="43.96706" lon="1.87201">
        <ele>192</ele>
        <time>2018-08-16T17:22:04Z</time>
      </trkpt>
      <trkpt lat="43.96718" lon="1.87212">
        <ele>192</ele>
        <time>2018-08-16T17:22:10Z</time>
      </trkpt>
      <trkpt lat="43.96732" lon="1.8723">
        <ele>197</ele>
        <time>2018-08-16T17:22:16Z</time>
      </trkpt>
      <trkpt lat="43.9674" lon="1.87261">
        <ele>200</ele>
        <time>2018-08-16T17:22:22Z</time>
      </trkpt>
      <trkpt lat="43.96749" lon="1.87289">
        <ele>200</ele>
        <time>2018-08-16T17:22:28Z</time>
      </trkpt>
      <trkpt lat="43.96753" lon="1.87315">
        <ele>200</ele>
        <time>2018-08-16T17:22:34Z</time>
      </trkpt>
      <trkpt lat="43.96754" lon="1.87341">
        <ele>200</ele>
        <time>2018-08-16T17:22:40Z</time>
      </trkpt>
      <trkpt lat="43.96754" lon="1.87366">
        <ele>200</ele>
        <time>2018-08-16T17:22:46Z</time>
      </trkpt>
      <trkpt lat="43.96756" lon="1.87393">
        <ele>202</ele>
        <time>2018-08-16T17:22:52Z</time>
      </trkpt>
      <trkpt lat="43.96759" lon="1.87419">
        <ele>203</ele>
        <time>2018-08-16T17:22:58Z</time>
      </trkpt>
      <trkpt lat="43.96763" lon="1.87446">
        <ele>203</ele>
        <time>2018-08-16T17:23:04Z</time>
      </trkpt>
      <trkpt lat="43.96769" lon="1.87468">
        <ele>204</ele>
        <time>2018-08-16T17:23:10Z</time>
      </trkpt>
      <trkpt lat="43.96773" lon="1.87491">
        <ele>205</ele>
        <time>2018-08-16T17:23:16Z</time>
      </trkpt>
      <trkpt lat="43.9678" lon="1.87511">
        <ele>205</ele>
        <time>2018-08-16T17:23:22Z</time>
      </trkpt>
      <trkpt lat="43.96789" lon="1.87529">
        <ele>207</ele>
        <time>2018-08-16T17:23:28Z</time>
      </trkpt>
      <trkpt lat="43.96798" lon="1.87545">
        <ele>211</ele>
        <time>2018-08-16T17:23:34Z</time>
      </trkpt>
      <trkpt lat="43.96806" lon="1.8756">
        <ele>213</ele>
        <time>2018-08-16T17:23:40Z</time>
      </trkpt>
      <trkpt lat="43.96812" lon="1.87575">
        <ele>215</ele>
        <time>2018-08-16T17:23:46Z</time>
      </trkpt>
      <trkpt lat="43.96818" lon="1.87591">
        <ele>216</ele>
        <time>2018-08-16T17:23:52Z</time>
      </trkpt>
      <trkpt lat="43.96824" lon="1.87607">
        <ele>216</ele>
        <time>2018-08-16T17:23:58Z</time>
      </trkpt>
      <trkpt lat="43.96832" lon="1.87622">
        <ele>217</ele>
        <time>2018-08-16T17:24:04Z</time>
      </trkpt>
      <trkpt lat="43.96841" lon="1.87637">
        <ele>219</ele>
        <time>2018-08-16T17:24:10Z</time>
      </trkpt>
      <trkpt lat="43.96849" lon="1.8765">
        <ele>220</ele>
        <time>2018-08-16T17:24:16Z</time>
      </trkpt>
      <trkpt lat="43.96859" lon="1.87665">
        <ele>220</ele>
        <time>2018-08-16T17:24:22Z</time>
      </trkpt>
      <trkpt lat="43.96867" lon="1.8768">
        <ele>221</ele>
        <time>2018-08-16T17:24:28Z</time>
      </trkpt>
      <trkpt lat="43.96877" lon="1.87695">
        <ele>223</ele>
        <time>2018-08-16T17:24:34Z</time>
      </trkpt>
      <trkpt lat="43.96886" lon="1.87707">
        <ele>225</ele>
        <time>2018-08-16T17:24:40Z</time>
      </trkpt>
      <trkpt lat="43.96895" lon="1.87719">
        <ele>225</ele>
        <time>2018-08-16T17:24:46Z</time>
      </trkpt>
      <trkpt lat="43.96904" lon="1.87734">
        <ele>225</ele>
        <time>2018-08-16T17:24:52Z</time>
      </trkpt>
      <trkpt lat="43.96909" lon="1.87744">
        <ele>226</ele>
        <time>2018-08-16T17:24:58Z</time>
      </trkpt>
      <trkpt lat="43.96905" lon="1.87751">
        <ele>226</ele>
        <time>2018-08-16T17:25:04Z</time>
      </trkpt>
      <trkpt lat="43.96901" lon="1.87759">
        <ele>226</ele>
        <time>2018-08-16T17:25:10Z</time>
      </trkpt>
      <trkpt lat="43.96906" lon="1.87754">
        <ele>227</ele>
        <time>2018-08-16T17:25:16Z</time>
      </trkpt>
      <trkpt lat="43.96904" lon="1.87752">
        <ele>228</ele>
        <time>2018-08-16T17:25:22Z</time>
      </trkpt>
      <trkpt lat="43.96898" lon="1.87764">
        <ele>229</ele>
        <time>2018-08-16T17:25:28Z</time>
      </trkpt>
      <trkpt lat="43.96899" lon="1.8777">
        <ele>230</ele>
        <time>2018-08-16T17:25:34Z</time>
      </trkpt>
      <trkpt lat="43.96904" lon="1.87758">
        <ele>231</ele>
        <time>2018-08-16T17:25:40Z</time>
      </trkpt>
      <trkpt lat="43.96909" lon="1.87751">
        <ele>231</ele>
        <time>2018-08-16T17:25:46Z</time>
      </trkpt>
      <trkpt lat="43.96913" lon="1.87744">
        <ele>231</ele>
        <time>2018-08-16T17:25:53Z</time>
      </trkpt>
      <trkpt lat="43.96913" lon="1.87742">
        <ele>230</ele>
        <time>2018-08-16T17:26:13Z</time>
      </trkpt>
      <trkpt lat="43.96913" lon="1.87743">
        <ele>230</ele>
        <time>2018-08-16T17:26:25Z</time>
      </trkpt>
      <trkpt lat="43.96912" lon="1.87744">
        <ele>231</ele>
        <time>2018-08-16T17:26:32Z</time>
      </trkpt>
      <trkpt lat="43.96911" lon="1.87745">
        <ele>236</ele>
        <time>2018-08-16T17:26:51Z</time>
      </trkpt>
      <trkpt lat="43.96912" lon="1.87748">
        <ele>237</ele>
        <time>2018-08-16T17:27:05Z</time>
      </trkpt>
      <trkpt lat="43.96921" lon="1.87753">
        <ele>237</ele>
        <time>2018-08-16T17:27:11Z</time>
      </trkpt>
      <trkpt lat="43.96933" lon="1.8777">
        <ele>237</ele>
        <time>2018-08-16T17:27:17Z</time>
      </trkpt>
      <trkpt lat="43.96952" lon="1.87799">
        <ele>237</ele>
        <time>2018-08-16T17:27:23Z</time>
      </trkpt>
      <trkpt lat="43.96973" lon="1.87831">
        <ele>237</ele>
        <time>2018-08-16T17:27:29Z</time>
      </trkpt>
      <trkpt lat="43.96996" lon="1.87861">
        <ele>237</ele>
        <time>2018-08-16T17:27:35Z</time>
      </trkpt>
      <trkpt lat="43.97019" lon="1.87884">
        <ele>237</ele>
        <time>2018-08-16T17:27:41Z</time>
      </trkpt>
      <trkpt lat="43.97034" lon="1.87901">
        <ele>237</ele>
        <time>2018-08-16T17:27:47Z</time>
      </trkpt>
      <trkpt lat="43.97051" lon="1.87911">
        <ele>235</ele>
        <time>2018-08-16T17:27:53Z</time>
      </trkpt>
      <trkpt lat="43.97071" lon="1.8795">
        <ele>233</ele>
        <time>2018-08-16T17:27:59Z</time>
      </trkpt>
      <trkpt lat="43.97081" lon="1.88003">
        <ele>233</ele>
        <time>2018-08-16T17:28:05Z</time>
      </trkpt>
      <trkpt lat="43.97088" lon="1.88057">
        <ele>231</ele>
        <time>2018-08-16T17:28:11Z</time>
      </trkpt>
      <trkpt lat="43.97094" lon="1.8812">
        <ele>228</ele>
        <time>2018-08-16T17:28:17Z</time>
      </trkpt>
      <trkpt lat="43.97097" lon="1.88174">
        <ele>226</ele>
        <time>2018-08-16T17:28:23Z</time>
      </trkpt>
      <trkpt lat="43.97102" lon="1.88227">
        <ele>225</ele>
        <time>2018-08-16T17:28:29Z</time>
      </trkpt>
      <trkpt lat="43.97114" lon="1.88286">
        <ele>224</ele>
        <time>2018-08-16T17:28:35Z</time>
      </trkpt>
      <trkpt lat="43.97131" lon="1.88348">
        <ele>220</ele>
        <time>2018-08-16T17:28:41Z</time>
      </trkpt>
      <trkpt lat="43.97149" lon="1.88404">
        <ele>216</ele>
        <time>2018-08-16T17:28:47Z</time>
      </trkpt>
      <trkpt lat="43.97162" lon="1.88449">
        <ele>213</ele>
        <time>2018-08-16T17:28:53Z</time>
      </trkpt>
      <trkpt lat="43.9717" lon="1.88493">
        <ele>211</ele>
        <time>2018-08-16T17:28:59Z</time>
      </trkpt>
      <trkpt lat="43.97171" lon="1.88539">
        <ele>210</ele>
        <time>2018-08-16T17:29:05Z</time>
      </trkpt>
      <trkpt lat="43.9717" lon="1.88582">
        <ele>209</ele>
        <time>2018-08-16T17:29:11Z</time>
      </trkpt>
      <trkpt lat="43.9717" lon="1.88622">
        <ele>207</ele>
        <time>2018-08-16T17:29:17Z</time>
      </trkpt>
      <trkpt lat="43.97171" lon="1.88662">
        <ele>207</ele>
        <time>2018-08-16T17:29:23Z</time>
      </trkpt>
      <trkpt lat="43.97181" lon="1.88695">
        <ele>207</ele>
        <time>2018-08-16T17:29:29Z</time>
      </trkpt>
      <trkpt lat="43.97198" lon="1.88726">
        <ele>206</ele>
        <time>2018-08-16T17:29:35Z</time>
      </trkpt>
      <trkpt lat="43.97208" lon="1.88757">
        <ele>206</ele>
        <time>2018-08-16T17:29:41Z</time>
      </trkpt>
      <trkpt lat="43.97215" lon="1.88788">
        <ele>204</ele>
        <time>2018-08-16T17:29:47Z</time>
      </trkpt>
      <trkpt lat="43.9722" lon="1.88815">
        <ele>203</ele>
        <time>2018-08-16T17:29:53Z</time>
      </trkpt>
      <trkpt lat="43.97226" lon="1.88842">
        <ele>203</ele>
        <time>2018-08-16T17:29:59Z</time>
      </trkpt>
      <trkpt lat="43.9723" lon="1.88863">
        <ele>203</ele>
        <time>2018-08-16T17:30:05Z</time>
      </trkpt>
      <trkpt lat="43.97233" lon="1.88882">
        <ele>203</ele>
        <time>2018-08-16T17:30:11Z</time>
      </trkpt>
      <trkpt lat="43.97237" lon="1.889">
        <ele>205</ele>
        <time>2018-08-16T17:30:17Z</time>
      </trkpt>
      <trkpt lat="43.9724" lon="1.88919">
        <ele>205</ele>
        <time>2018-08-16T17:30:23Z</time>
      </trkpt>
      <trkpt lat="43.97243" lon="1.88934">
        <ele>206</ele>
        <time>2018-08-16T17:30:29Z</time>
      </trkpt>
      <trkpt lat="43.97246" lon="1.88951">
        <ele>208</ele>
        <time>2018-08-16T17:30:35Z</time>
      </trkpt>
      <trkpt lat="43.97249" lon="1.88969">
        <ele>209</ele>
        <time>2018-08-16T17:30:41Z</time>
      </trkpt>
      <trkpt lat="43.97253" lon="1.88987">
        <ele>209</ele>
        <time>2018-08-16T17:30:47Z</time>
      </trkpt>
      <trkpt lat="43.97256" lon="1.89005">
        <ele>209</ele>
        <time>2018-08-16T17:30:53Z</time>
      </trkpt>
      <trkpt lat="43.97261" lon="1.89023">
        <ele>210</ele>
        <time>2018-08-16T17:30:59Z</time>
      </trkpt>
      <trkpt lat="43.97266" lon="1.89042">
        <ele>211</ele>
        <time>2018-08-16T17:31:05Z</time>
      </trkpt>
      <trkpt lat="43.97271" lon="1.8906">
        <ele>211</ele>
        <time>2018-08-16T17:31:11Z</time>
      </trkpt>
      <trkpt lat="43.97274" lon="1.89077">
        <ele>212</ele>
        <time>2018-08-16T17:31:17Z</time>
      </trkpt>
      <trkpt lat="43.97281" lon="1.89096">
        <ele>213</ele>
        <time>2018-08-16T17:31:23Z</time>
      </trkpt>
      <trkpt lat="43.97287" lon="1.89112">
        <ele>214</ele>
        <time>2018-08-16T17:31:29Z</time>
      </trkpt>
      <trkpt lat="43.97293" lon="1.89129">
        <ele>216</ele>
        <time>2018-08-16T17:31:35Z</time>
      </trkpt>
      <trkpt lat="43.97297" lon="1.89147">
        <ele>221</ele>
        <time>2018-08-16T17:31:41Z</time>
      </trkpt>
      <trkpt lat="43.973" lon="1.89167">
        <ele>223</ele>
        <time>2018-08-16T17:31:47Z</time>
      </trkpt>
      <trkpt lat="43.97301" lon="1.89189">
        <ele>224</ele>
        <time>2018-08-16T17:31:53Z</time>
      </trkpt>
      <trkpt lat="43.97303" lon="1.8921">
        <ele>224</ele>
        <time>2018-08-16T17:31:59Z</time>
      </trkpt>
      <trkpt lat="43.97306" lon="1.89228">
        <ele>225</ele>
        <time>2018-08-16T17:32:05Z</time>
      </trkpt>
      <trkpt lat="43.97308" lon="1.89247">
        <ele>226</ele>
        <time>2018-08-16T17:32:11Z</time>
      </trkpt>
      <trkpt lat="43.97309" lon="1.89264">
        <ele>227</ele>
        <time>2018-08-16T17:32:17Z</time>
      </trkpt>
      <trkpt lat="43.9731" lon="1.89282">
        <ele>228</ele>
        <time>2018-08-16T17:32:23Z</time>
      </trkpt>
      <trkpt lat="43.9731" lon="1.89297">
        <ele>229</ele>
        <time>2018-08-16T17:32:29Z</time>
      </trkpt>
      <trkpt lat="43.97312" lon="1.89311">
        <ele>230</ele>
        <time>2018-08-16T17:32:35Z</time>
      </trkpt>
      <trkpt lat="43.97314" lon="1.89323">
        <ele>230</ele>
        <time>2018-08-16T17:32:41Z</time>
      </trkpt>
      <trkpt lat="43.97318" lon="1.89333">
        <ele>232</ele>
        <time>2018-08-16T17:32:47Z</time>
      </trkpt>
      <trkpt lat="43.97321" lon="1.8934">
        <ele>234</ele>
        <time>2018-08-16T17:32:53Z</time>
      </trkpt>
      <trkpt lat="43.97322" lon="1.89342">
        <ele>236</ele>
        <time>2018-08-16T17:33:04Z</time>
      </trkpt>
      <trkpt lat="43.97323" lon="1.89343">
        <ele>236</ele>
        <time>2018-08-16T17:33:12Z</time>
      </trkpt>
      <trkpt lat="43.97324" lon="1.89347">
        <ele>237</ele>
        <time>2018-08-16T17:33:31Z</time>
      </trkpt>
      <trkpt lat="43.9733" lon="1.89357">
        <ele>237</ele>
        <time>2018-08-16T17:33:37Z</time>
      </trkpt>
      <trkpt lat="43.97343" lon="1.89378">
        <ele>237</ele>
        <time>2018-08-16T17:33:43Z</time>
      </trkpt>
      <trkpt lat="43.97367" lon="1.89396">
        <ele>237</ele>
        <time>2018-08-16T17:33:49Z</time>
      </trkpt>
      <trkpt lat="43.97419" lon="1.89442">
        <ele>234</ele>
        <time>2018-08-16T17:33:55Z</time>
      </trkpt>
      <trkpt lat="43.97472" lon="1.89491">
        <ele>228</ele>
        <time>2018-08-16T17:34:01Z</time>
      </trkpt>
      <trkpt lat="43.9752" lon="1.89537">
        <ele>224</ele>
        <time>2018-08-16T17:34:08Z</time>
      </trkpt>
      <trkpt lat="43.97553" lon="1.89587">
        <ele>222</ele>
        <time>2018-08-16T17:34:14Z</time>
      </trkpt>
      <trkpt lat="43.97578" lon="1.89638">
        <ele>219</ele>
        <time>2018-08-16T17:34:20Z</time>
      </trkpt>
      <trkpt lat="43.97601" lon="1.89695">
        <ele>214</ele>
        <time>2018-08-16T17:34:26Z</time>
      </trkpt>
      <trkpt lat="43.97635" lon="1.89749">
        <ele>213</ele>
        <time>2018-08-16T17:34:32Z</time>
      </trkpt>
      <trkpt lat="43.97673" lon="1.89795">
        <ele>208</ele>
        <time>2018-08-16T17:34:38Z</time>
      </trkpt>
      <trkpt lat="43.97711" lon="1.89853">
        <ele>205</ele>
        <time>2018-08-16T17:34:44Z</time>
      </trkpt>
      <trkpt lat="43.97739" lon="1.89918">
        <ele>203</ele>
        <time>2018-08-16T17:34:50Z</time>
      </trkpt>
      <trkpt lat="43.97773" lon="1.89976">
        <ele>200</ele>
        <time>2018-08-16T17:34:56Z</time>
      </trkpt>
      <trkpt lat="43.97797" lon="1.90025">
        <ele>197</ele>
        <time>2018-08-16T17:35:02Z</time>
      </trkpt>
      <trkpt lat="43.97797" lon="1.90051">
        <ele>197</ele>
        <time>2018-08-16T17:35:08Z</time>
      </trkpt>
      <trkpt lat="43.97792" lon="1.90063">
        <ele>197</ele>
        <time>2018-08-16T17:35:14Z</time>
      </trkpt>
      <trkpt lat="43.97789" lon="1.90083">
        <ele>197</ele>
        <time>2018-08-16T17:35:20Z</time>
      </trkpt>
      <trkpt lat="43.9779" lon="1.90107">
        <ele>197</ele>
        <time>2018-08-16T17:35:26Z</time>
      </trkpt>
      <trkpt lat="43.97804" lon="1.90124">
        <ele>195</ele>
        <time>2018-08-16T17:35:32Z</time>
      </trkpt>
      <trkpt lat="43.97824" lon="1.90132">
        <ele>194</ele>
        <time>2018-08-16T17:35:38Z</time>
      </trkpt>
      <trkpt lat="43.97844" lon="1.9014">
        <ele>194</ele>
        <time>2018-08-16T17:35:44Z</time>
      </trkpt>
      <trkpt lat="43.97863" lon="1.90147">
        <ele>194</ele>
        <time>2018-08-16T17:35:50Z</time>
      </trkpt>
      <trkpt lat="43.97883" lon="1.90155">
        <ele>195</ele>
        <time>2018-08-16T17:35:56Z</time>
      </trkpt>
      <trkpt lat="43.97902" lon="1.90167">
        <ele>198</ele>
        <time>2018-08-16T17:36:02Z</time>
      </trkpt>
      <trkpt lat="43.97917" lon="1.90181">
        <ele>201</ele>
        <time>2018-08-16T17:36:08Z</time>
      </trkpt>
      <trkpt lat="43.97936" lon="1.90197">
        <ele>204</ele>
        <time>2018-08-16T17:36:14Z</time>
      </trkpt>
      <trkpt lat="43.97958" lon="1.90214">
        <ele>206</ele>
        <time>2018-08-16T17:36:20Z</time>
      </trkpt>
      <trkpt lat="43.97983" lon="1.9023">
        <ele>206</ele>
        <time>2018-08-16T17:36:26Z</time>
      </trkpt>
      <trkpt lat="43.98002" lon="1.90245">
        <ele>206</ele>
        <time>2018-08-16T17:36:32Z</time>
      </trkpt>
      <trkpt lat="43.98019" lon="1.90258">
        <ele>207</ele>
        <time>2018-08-16T17:36:38Z</time>
      </trkpt>
      <trkpt lat="43.98037" lon="1.90272">
        <ele>207</ele>
        <time>2018-08-16T17:36:44Z</time>
      </trkpt>
      <trkpt lat="43.98056" lon="1.90287">
        <ele>208</ele>
        <time>2018-08-16T17:36:50Z</time>
      </trkpt>
      <trkpt lat="43.98072" lon="1.90298">
        <ele>208</ele>
        <time>2018-08-16T17:36:56Z</time>
      </trkpt>
      <trkpt lat="43.98076" lon="1.90313">
        <ele>209</ele>
        <time>2018-08-16T17:37:02Z</time>
      </trkpt>
      <trkpt lat="43.98069" lon="1.90332">
        <ele>210</ele>
        <time>2018-08-16T17:37:08Z</time>
      </trkpt>
      <trkpt lat="43.98059" lon="1.90351">
        <ele>212</ele>
        <time>2018-08-16T17:37:14Z</time>
      </trkpt>
      <trkpt lat="43.98046" lon="1.90374">
        <ele>213</ele>
        <time>2018-08-16T17:37:20Z</time>
      </trkpt>
      <trkpt lat="43.98032" lon="1.90398">
        <ele>215</ele>
        <time>2018-08-16T17:37:26Z</time>
      </trkpt>
      <trkpt lat="43.98019" lon="1.90422">
        <ele>215</ele>
        <time>2018-08-16T17:37:32Z</time>
      </trkpt>
      <trkpt lat="43.98006" lon="1.90446">
        <ele>215</ele>
        <time>2018-08-16T17:37:38Z</time>
      </trkpt>
      <trkpt lat="43.97994" lon="1.90468">
        <ele>216</ele>
        <time>2018-08-16T17:37:44Z</time>
      </trkpt>
      <trkpt lat="43.97983" lon="1.90488">
        <ele>217</ele>
        <time>2018-08-16T17:37:50Z</time>
      </trkpt>
      <trkpt lat="43.97971" lon="1.90508">
        <ele>218</ele>
        <time>2018-08-16T17:37:56Z</time>
      </trkpt>
      <trkpt lat="43.97959" lon="1.90529">
        <ele>218</ele>
        <time>2018-08-16T17:38:02Z</time>
      </trkpt>
      <trkpt lat="43.97948" lon="1.9055">
        <ele>219</ele>
        <time>2018-08-16T17:38:08Z</time>
      </trkpt>
      <trkpt lat="43.97934" lon="1.90568">
        <ele>220</ele>
        <time>2018-08-16T17:38:14Z</time>
      </trkpt>
      <trkpt lat="43.97923" lon="1.90585">
        <ele>220</ele>
        <time>2018-08-16T17:38:20Z</time>
      </trkpt>
      <trkpt lat="43.97911" lon="1.90602">
        <ele>221</ele>
        <time>2018-08-16T17:38:26Z</time>
      </trkpt>
      <trkpt lat="43.97906" lon="1.90612">
        <ele>221</ele>
        <time>2018-08-16T17:38:36Z</time>
      </trkpt>
      <trkpt lat="43.97894" lon="1.90614">
        <ele>221</ele>
        <time>2018-08-16T17:38:42Z</time>
      </trkpt>
      <trkpt lat="43.97887" lon="1.90622">
        <ele>221</ele>
        <time>2018-08-16T17:38:48Z</time>
      </trkpt>
      <trkpt lat="43.97878" lon="1.90635">
        <ele>221</ele>
        <time>2018-08-16T17:38:54Z</time>
      </trkpt>
      <trkpt lat="43.97867" lon="1.90655">
        <ele>223</ele>
        <time>2018-08-16T17:39:00Z</time>
      </trkpt>
      <trkpt lat="43.97855" lon="1.90674">
        <ele>224</ele>
        <time>2018-08-16T17:39:06Z</time>
      </trkpt>
      <trkpt lat="43.97844" lon="1.90693">
        <ele>225</ele>
        <time>2018-08-16T17:39:12Z</time>
      </trkpt>
      <trkpt lat="43.97833" lon="1.90713">
        <ele>225</ele>
        <time>2018-08-16T17:39:18Z</time>
      </trkpt>
      <trkpt lat="43.97822" lon="1.90733">
        <ele>225</ele>
        <time>2018-08-16T17:39:24Z</time>
      </trkpt>
      <trkpt lat="43.97812" lon="1.90754">
        <ele>225</ele>
        <time>2018-08-16T17:39:30Z</time>
      </trkpt>
      <trkpt lat="43.97802" lon="1.90771">
        <ele>225</ele>
        <time>2018-08-16T17:39:36Z</time>
      </trkpt>
      <trkpt lat="43.97786" lon="1.90782">
        <ele>225</ele>
        <time>2018-08-16T17:39:42Z</time>
      </trkpt>
      <trkpt lat="43.97766" lon="1.90769">
        <ele>225</ele>
        <time>2018-08-16T17:39:48Z</time>
      </trkpt>
      <trkpt lat="43.97743" lon="1.90756">
        <ele>225</ele>
        <time>2018-08-16T17:39:55Z</time>
      </trkpt>
      <trkpt lat="43.97717" lon="1.90772">
        <ele>221</ele>
        <time>2018-08-16T17:40:01Z</time>
      </trkpt>
      <trkpt lat="43.97695" lon="1.90799">
        <ele>220</ele>
        <time>2018-08-16T17:40:07Z</time>
      </trkpt>
      <trkpt lat="43.97682" lon="1.90828">
        <ele>219</ele>
        <time>2018-08-16T17:40:13Z</time>
      </trkpt>
      <trkpt lat="43.97678" lon="1.90865">
        <ele>219</ele>
        <time>2018-08-16T17:40:19Z</time>
      </trkpt>
      <trkpt lat="43.97679" lon="1.90902">
        <ele>223</ele>
        <time>2018-08-16T17:40:25Z</time>
      </trkpt>
      <trkpt lat="43.97667" lon="1.90939">
        <ele>227</ele>
        <time>2018-08-16T17:40:31Z</time>
      </trkpt>
      <trkpt lat="43.9765" lon="1.90973">
        <ele>230</ele>
        <time>2018-08-16T17:40:37Z</time>
      </trkpt>
      <trkpt lat="43.97633" lon="1.91017">
        <ele>231</ele>
        <time>2018-08-16T17:40:44Z</time>
      </trkpt>
      <trkpt lat="43.97624" lon="1.91057">
        <ele>232</ele>
        <time>2018-08-16T17:40:50Z</time>
      </trkpt>
      <trkpt lat="43.97608" lon="1.91089">
        <ele>232</ele>
        <time>2018-08-16T17:40:56Z</time>
      </trkpt>
      <trkpt lat="43.97594" lon="1.91112">
        <ele>232</ele>
        <time>2018-08-16T17:41:02Z</time>
      </trkpt>
      <trkpt lat="43.97582" lon="1.91131">
        <ele>232</ele>
        <time>2018-08-16T17:41:08Z</time>
      </trkpt>
      <trkpt lat="43.97565" lon="1.91151">
        <ele>232</ele>
        <time>2018-08-16T17:41:14Z</time>
      </trkpt>
      <trkpt lat="43.97551" lon="1.91165">
        <ele>232</ele>
        <time>2018-08-16T17:41:20Z</time>
      </trkpt>
      <trkpt lat="43.97532" lon="1.91179">
        <ele>232</ele>
        <time>2018-08-16T17:41:27Z</time>
      </trkpt>
      <trkpt lat="43.97516" lon="1.91193">
        <ele>232</ele>
        <time>2018-08-16T17:41:33Z</time>
      </trkpt>
      <trkpt lat="43.97501" lon="1.9121">
        <ele>232</ele>
        <time>2018-08-16T17:41:39Z</time>
      </trkpt>
      <trkpt lat="43.97498" lon="1.91231">
        <ele>232</ele>
        <time>2018-08-16T17:41:45Z</time>
      </trkpt>
      <trkpt lat="43.97481" lon="1.91238">
        <ele>232</ele>
        <time>2018-08-16T17:41:52Z</time>
      </trkpt>
      <trkpt lat="43.97464" lon="1.91247">
        <ele>232</ele>
        <time>2018-08-16T17:41:58Z</time>
      </trkpt>
      <trkpt lat="43.97446" lon="1.91256">
        <ele>232</ele>
        <time>2018-08-16T17:42:04Z</time>
      </trkpt>
      <trkpt lat="43.97426" lon="1.91269">
        <ele>232</ele>
        <time>2018-08-16T17:42:10Z</time>
      </trkpt>
      <trkpt lat="43.97406" lon="1.91281">
        <ele>232</ele>
        <time>2018-08-16T17:42:17Z</time>
      </trkpt>
      <trkpt lat="43.97384" lon="1.91293">
        <ele>232</ele>
        <time>2018-08-16T17:42:23Z</time>
      </trkpt>
      <trkpt lat="43.97362" lon="1.91314">
        <ele>232</ele>
        <time>2018-08-16T17:42:29Z</time>
      </trkpt>
      <trkpt lat="43.97343" lon="1.91331">
        <ele>233</ele>
        <time>2018-08-16T17:42:35Z</time>
      </trkpt>
      <trkpt lat="43.9732" lon="1.91351">
        <ele>233</ele>
        <time>2018-08-16T17:42:41Z</time>
      </trkpt>
      <trkpt lat="43.97298" lon="1.91369">
        <ele>234</ele>
        <time>2018-08-16T17:42:48Z</time>
      </trkpt>
      <trkpt lat="43.97273" lon="1.91381">
        <ele>237</ele>
        <time>2018-08-16T17:42:54Z</time>
      </trkpt>
      <trkpt lat="43.97251" lon="1.91377">
        <ele>237</ele>
        <time>2018-08-16T17:43:00Z</time>
      </trkpt>
      <trkpt lat="43.9723" lon="1.91371">
        <ele>237</ele>
        <time>2018-08-16T17:43:06Z</time>
      </trkpt>
      <trkpt lat="43.97209" lon="1.9136">
        <ele>236</ele>
        <time>2018-08-16T17:43:12Z</time>
      </trkpt>
      <trkpt lat="43.97183" lon="1.91345">
        <ele>234</ele>
        <time>2018-08-16T17:43:19Z</time>
      </trkpt>
      <trkpt lat="43.97148" lon="1.91335">
        <ele>232</ele>
        <time>2018-08-16T17:43:25Z</time>
      </trkpt>
      <trkpt lat="43.97119" lon="1.91342">
        <ele>231</ele>
        <time>2018-08-16T17:43:31Z</time>
      </trkpt>
      <trkpt lat="43.97092" lon="1.91358">
        <ele>230</ele>
        <time>2018-08-16T17:43:37Z</time>
      </trkpt>
      <trkpt lat="43.97058" lon="1.91375">
        <ele>229</ele>
        <time>2018-08-16T17:43:43Z</time>
      </trkpt>
      <trkpt lat="43.97017" lon="1.91396">
        <ele>229</ele>
        <time>2018-08-16T17:43:49Z</time>
      </trkpt>
      <trkpt lat="43.96975" lon="1.91416">
        <ele>227</ele>
        <time>2018-08-16T17:43:56Z</time>
      </trkpt>
      <trkpt lat="43.96925" lon="1.91436">
        <ele>223</ele>
        <time>2018-08-16T17:44:02Z</time>
      </trkpt>
      <trkpt lat="43.96891" lon="1.91448">
        <ele>221</ele>
        <time>2018-08-16T17:44:08Z</time>
      </trkpt>
      <trkpt lat="43.9686" lon="1.91468">
        <ele>221</ele>
        <time>2018-08-16T17:44:14Z</time>
      </trkpt>
      <trkpt lat="43.96822" lon="1.91488">
        <ele>220</ele>
        <time>2018-08-16T17:44:21Z</time>
      </trkpt>
      <trkpt lat="43.96781" lon="1.91507">
        <ele>219</ele>
        <time>2018-08-16T17:44:27Z</time>
      </trkpt>
      <trkpt lat="43.96765" lon="1.91521">
        <ele>218</ele>
        <time>2018-08-16T17:44:33Z</time>
      </trkpt>
      <trkpt lat="43.96775" lon="1.91546">
        <ele>217</ele>
        <time>2018-08-16T17:44:39Z</time>
      </trkpt>
      <trkpt lat="43.96782" lon="1.91585">
        <ele>215</ele>
        <time>2018-08-16T17:44:46Z</time>
      </trkpt>
      <trkpt lat="43.96777" lon="1.91634">
        <ele>215</ele>
        <time>2018-08-16T17:44:52Z</time>
      </trkpt>
      <trkpt lat="43.9677" lon="1.91671">
        <ele>215</ele>
        <time>2018-08-16T17:44:59Z</time>
      </trkpt>
      <trkpt lat="43.96768" lon="1.91685">
        <ele>217</ele>
        <time>2018-08-16T17:45:06Z</time>
      </trkpt>
      <trkpt lat="43.96765" lon="1.91703">
        <ele>218</ele>
        <time>2018-08-16T17:45:12Z</time>
      </trkpt>
      <trkpt lat="43.96757" lon="1.91738">
        <ele>219</ele>
        <time>2018-08-16T17:45:18Z</time>
      </trkpt>
      <trkpt lat="43.96747" lon="1.9177">
        <ele>219</ele>
        <time>2018-08-16T17:45:24Z</time>
      </trkpt>
      <trkpt lat="43.96724" lon="1.91793">
        <ele>219</ele>
        <time>2018-08-16T17:45:30Z</time>
      </trkpt>
      <trkpt lat="43.967" lon="1.91805">
        <ele>219</ele>
        <time>2018-08-16T17:45:37Z</time>
      </trkpt>
      <trkpt lat="43.96673" lon="1.91817">
        <ele>219</ele>
        <time>2018-08-16T17:45:43Z</time>
      </trkpt>
      <trkpt lat="43.96642" lon="1.91831">
        <ele>219</ele>
        <time>2018-08-16T17:45:49Z</time>
      </trkpt>
      <trkpt lat="43.96613" lon="1.91872">
        <ele>214</ele>
        <time>2018-08-16T17:45:55Z</time>
      </trkpt>
      <trkpt lat="43.96582" lon="1.91908">
        <ele>211</ele>
        <time>2018-08-16T17:46:02Z</time>
      </trkpt>
      <trkpt lat="43.96542" lon="1.91918">
        <ele>211</ele>
        <time>2018-08-16T17:46:08Z</time>
      </trkpt>
      <trkpt lat="43.96515" lon="1.91924">
        <ele>211</ele>
        <time>2018-08-16T17:46:14Z</time>
      </trkpt>
      <trkpt lat="43.96491" lon="1.91932">
        <ele>211</ele>
        <time>2018-08-16T17:46:20Z</time>
      </trkpt>
      <trkpt lat="43.9647" lon="1.91943">
        <ele>211</ele>
        <time>2018-08-16T17:46:27Z</time>
      </trkpt>
      <trkpt lat="43.96457" lon="1.91975">
        <ele>211</ele>
        <time>2018-08-16T17:46:33Z</time>
      </trkpt>
      <trkpt lat="43.96451" lon="1.92009">
        <ele>211</ele>
        <time>2018-08-16T17:46:39Z</time>
      </trkpt>
      <trkpt lat="43.96439" lon="1.92032">
        <ele>211</ele>
        <time>2018-08-16T17:46:45Z</time>
      </trkpt>
      <trkpt lat="43.96429" lon="1.92057">
        <ele>211</ele>
        <time>2018-08-16T17:46:52Z</time>
      </trkpt>
      <trkpt lat="43.96424" lon="1.92061">
        <ele>211</ele>
        <time>2018-08-16T17:46:58Z</time>
      </trkpt>
      <trkpt lat="43.96416" lon="1.92051">
        <ele>211</ele>
        <time>2018-08-16T17:47:04Z</time>
      </trkpt>
      <trkpt lat="43.9641" lon="1.92025">
        <ele>205</ele>
        <time>2018-08-16T17:47:10Z</time>
      </trkpt>
      <trkpt lat="43.96398" lon="1.91998">
        <ele>205</ele>
        <time>2018-08-16T17:47:16Z</time>
      </trkpt>
      <trkpt lat="43.96379" lon="1.92022">
        <ele>199</ele>
        <time>2018-08-16T17:47:22Z</time>
      </trkpt>
      <trkpt lat="43.9636" lon="1.92061">
        <ele>194</ele>
        <time>2018-08-16T17:47:28Z</time>
      </trkpt>
      <trkpt lat="43.96333" lon="1.92049">
        <ele>192</ele>
        <time>2018-08-16T17:47:34Z</time>
      </trkpt>
      <trkpt lat="43.96289" lon="1.92025">
        <ele>188</ele>
        <time>2018-08-16T17:47:40Z</time>
      </trkpt>
      <trkpt lat="43.96266" lon="1.9201">
        <ele>186</ele>
        <time>2018-08-16T17:47:46Z</time>
      </trkpt>
      <trkpt lat="43.96259" lon="1.92012">
        <ele>184</ele>
        <time>2018-08-16T17:47:53Z</time>
      </trkpt>
      <trkpt lat="43.9622" lon="1.92005">
        <ele>183</ele>
        <time>2018-08-16T17:47:59Z</time>
      </trkpt>
      <trkpt lat="43.96176" lon="1.91994">
        <ele>182</ele>
        <time>2018-08-16T17:48:05Z</time>
      </trkpt>
      <trkpt lat="43.96148" lon="1.91983">
        <ele>179</ele>
        <time>2018-08-16T17:48:11Z</time>
      </trkpt>
      <trkpt lat="43.96125" lon="1.91977">
        <ele>173</ele>
        <time>2018-08-16T17:48:18Z</time>
      </trkpt>
      <trkpt lat="43.961" lon="1.91983">
        <ele>171</ele>
        <time>2018-08-16T17:48:24Z</time>
      </trkpt>
      <trkpt lat="43.9608" lon="1.91987">
        <ele>171</ele>
        <time>2018-08-16T17:48:30Z</time>
      </trkpt>
      <trkpt lat="43.96059" lon="1.91987">
        <ele>171</ele>
        <time>2018-08-16T17:48:36Z</time>
      </trkpt>
      <trkpt lat="43.9604" lon="1.91987">
        <ele>172</ele>
        <time>2018-08-16T17:48:42Z</time>
      </trkpt>
      <trkpt lat="43.96019" lon="1.91979">
        <ele>173</ele>
        <time>2018-08-16T17:48:48Z</time>
      </trkpt>
      <trkpt lat="43.96018" lon="1.91961">
        <ele>174</ele>
        <time>2018-08-16T17:48:54Z</time>
      </trkpt>
      <trkpt lat="43.96017" lon="1.91948">
        <ele>176</ele>
        <time>2018-08-16T17:49:00Z</time>
      </trkpt>
      <trkpt lat="43.96016" lon="1.91939">
        <ele>180</ele>
        <time>2018-08-16T17:49:08Z</time>
      </trkpt>
      <trkpt lat="43.96017" lon="1.91921">
        <ele>182</ele>
        <time>2018-08-16T17:49:14Z</time>
      </trkpt>
      <trkpt lat="43.96023" lon="1.91911">
        <ele>185</ele>
        <time>2018-08-16T17:49:20Z</time>
      </trkpt>
      <trkpt lat="43.9603" lon="1.919">
        <ele>188</ele>
        <time>2018-08-16T17:49:26Z</time>
      </trkpt>
      <trkpt lat="43.96038" lon="1.91888">
        <ele>191</ele>
        <time>2018-08-16T17:49:33Z</time>
      </trkpt>
      <trkpt lat="43.96044" lon="1.91878">
        <ele>191</ele>
        <time>2018-08-16T17:49:39Z</time>
      </trkpt>
      <trkpt lat="43.96049" lon="1.9187">
        <ele>191</ele>
        <time>2018-08-16T17:49:46Z</time>
      </trkpt>
      <trkpt lat="43.96047" lon="1.91864">
        <ele>191</ele>
        <time>2018-08-16T17:49:52Z</time>
      </trkpt>
      <trkpt lat="43.96043" lon="1.91863">
        <ele>191</ele>
        <time>2018-08-16T17:49:59Z</time>
      </trkpt>
      <trkpt lat="43.96054" lon="1.91864">
        <ele>191</ele>
        <time>2018-08-16T17:50:05Z</time>
      </trkpt>
      <trkpt lat="43.96061" lon="1.91855">
        <ele>191</ele>
        <time>2018-08-16T17:50:11Z</time>
      </trkpt>
      <trkpt lat="43.96067" lon="1.91844">
        <ele>191</ele>
        <time>2018-08-16T17:50:17Z</time>
      </trkpt>
      <trkpt lat="43.96074" lon="1.9183">
        <ele>191</ele>
        <time>2018-08-16T17:50:23Z</time>
      </trkpt>
      <trkpt lat="43.9608" lon="1.91813">
        <ele>191</ele>
        <time>2018-08-16T17:50:29Z</time>
      </trkpt>
      <trkpt lat="43.96083" lon="1.9179">
        <ele>193</ele>
        <time>2018-08-16T17:50:35Z</time>
      </trkpt>
      <trkpt lat="43.96086" lon="1.91771">
        <ele>194</ele>
        <time>2018-08-16T17:50:41Z</time>
      </trkpt>
      <trkpt lat="43.96089" lon="1.91754">
        <ele>194</ele>
        <time>2018-08-16T17:50:47Z</time>
      </trkpt>
      <trkpt lat="43.96084" lon="1.91744">
        <ele>195</ele>
        <time>2018-08-16T17:50:53Z</time>
      </trkpt>
      <trkpt lat="43.96077" lon="1.91735">
        <ele>199</ele>
        <time>2018-08-16T17:51:00Z</time>
      </trkpt>
      <trkpt lat="43.96073" lon="1.91727">
        <ele>199</ele>
        <time>2018-08-16T17:51:06Z</time>
      </trkpt>
      <trkpt lat="43.96071" lon="1.91716">
        <ele>200</ele>
        <time>2018-08-16T17:51:12Z</time>
      </trkpt>
      <trkpt lat="43.96066" lon="1.91703">
        <ele>201</ele>
        <time>2018-08-16T17:51:18Z</time>
      </trkpt>
      <trkpt lat="43.9606" lon="1.9169">
        <ele>201</ele>
        <time>2018-08-16T17:51:24Z</time>
      </trkpt>
      <trkpt lat="43.96056" lon="1.91678">
        <ele>202</ele>
        <time>2018-08-16T17:51:30Z</time>
      </trkpt>
      <trkpt lat="43.96051" lon="1.91666">
        <ele>202</ele>
        <time>2018-08-16T17:51:36Z</time>
      </trkpt>
      <trkpt lat="43.96045" lon="1.91654">
        <ele>204</ele>
        <time>2018-08-16T17:51:42Z</time>
      </trkpt>
      <trkpt lat="43.9604" lon="1.91641">
        <ele>204</ele>
        <time>2018-08-16T17:51:48Z</time>
      </trkpt>
      <trkpt lat="43.96034" lon="1.91628">
        <ele>205</ele>
        <time>2018-08-16T17:51:54Z</time>
      </trkpt>
      <trkpt lat="43.96028" lon="1.91613">
        <ele>205</ele>
        <time>2018-08-16T17:52:00Z</time>
      </trkpt>
      <trkpt lat="43.96023" lon="1.91597">
        <ele>205</ele>
        <time>2018-08-16T17:52:06Z</time>
      </trkpt>
      <trkpt lat="43.96021" lon="1.91576">
        <ele>205</ele>
        <time>2018-08-16T17:52:12Z</time>
      </trkpt>
      <trkpt lat="43.96019" lon="1.91554">
        <ele>205</ele>
        <time>2018-08-16T17:52:18Z</time>
      </trkpt>
      <trkpt lat="43.96017" lon="1.91526">
        <ele>205</ele>
        <time>2018-08-16T17:52:24Z</time>
      </trkpt>
      <trkpt lat="43.96014" lon="1.91498">
        <ele>204</ele>
        <time>2018-08-16T17:52:30Z</time>
      </trkpt>
      <trkpt lat="43.96012" lon="1.9147">
        <ele>204</ele>
        <time>2018-08-16T17:52:36Z</time>
      </trkpt>
      <trkpt lat="43.96016" lon="1.91446">
        <ele>204</ele>
        <time>2018-08-16T17:52:42Z</time>
      </trkpt>
      <trkpt lat="43.96016" lon="1.91424">
        <ele>204</ele>
        <time>2018-08-16T17:52:48Z</time>
      </trkpt>
      <trkpt lat="43.96016" lon="1.91393">
        <ele>204</ele>
        <time>2018-08-16T17:52:54Z</time>
      </trkpt>
      <trkpt lat="43.96014" lon="1.91362">
        <ele>203</ele>
        <time>2018-08-16T17:53:00Z</time>
      </trkpt>
      <trkpt lat="43.95996" lon="1.91348">
        <ele>202</ele>
        <time>2018-08-16T17:53:06Z</time>
      </trkpt>
      <trkpt lat="43.95969" lon="1.91337">
        <ele>200</ele>
        <time>2018-08-16T17:53:12Z</time>
      </trkpt>
      <trkpt lat="43.95935" lon="1.91337">
        <ele>197</ele>
        <time>2018-08-16T17:53:18Z</time>
      </trkpt>
      <trkpt lat="43.95919" lon="1.91325">
        <ele>195</ele>
        <time>2018-08-16T17:53:26Z</time>
      </trkpt>
      <trkpt lat="43.95918" lon="1.91326">
        <ele>195</ele>
        <time>2018-08-16T17:53:33Z</time>
      </trkpt>
      <trkpt lat="43.95919" lon="1.91325">
        <ele>196</ele>
        <time>2018-08-16T17:53:53Z</time>
      </trkpt>
      <trkpt lat="43.95918" lon="1.9132">
        <ele>196</ele>
        <time>2018-08-16T17:53:59Z</time>
      </trkpt>
      <trkpt lat="43.95918" lon="1.91308">
        <ele>196</ele>
        <time>2018-08-16T17:54:05Z</time>
      </trkpt>
      <trkpt lat="43.95917" lon="1.91299">
        <ele>199</ele>
        <time>2018-08-16T17:54:11Z</time>
      </trkpt>
      <trkpt lat="43.95915" lon="1.91286">
        <ele>200</ele>
        <time>2018-08-16T17:54:17Z</time>
      </trkpt>
      <trkpt lat="43.95914" lon="1.91271">
        <ele>200</ele>
        <time>2018-08-16T17:54:23Z</time>
      </trkpt>
      <trkpt lat="43.95909" lon="1.91256">
        <ele>200</ele>
        <time>2018-08-16T17:54:29Z</time>
      </trkpt>
      <trkpt lat="43.95911" lon="1.9124">
        <ele>200</ele>
        <time>2018-08-16T17:54:35Z</time>
      </trkpt>
      <trkpt lat="43.95913" lon="1.91231">
        <ele>202</ele>
        <time>2018-08-16T17:54:41Z</time>
      </trkpt>
      <trkpt lat="43.95914" lon="1.91226">
        <ele>202</ele>
        <time>2018-08-16T17:54:47Z</time>
      </trkpt>
      <trkpt lat="43.95913" lon="1.91223">
        <ele>203</ele>
        <time>2018-08-16T17:54:54Z</time>
      </trkpt>
      <trkpt lat="43.95912" lon="1.91219">
        <ele>203</ele>
        <time>2018-08-16T17:55:00Z</time>
      </trkpt>
      <trkpt lat="43.95912" lon="1.91213">
        <ele>203</ele>
        <time>2018-08-16T17:55:06Z</time>
      </trkpt>
      <trkpt lat="43.9591" lon="1.9121">
        <ele>202</ele>
        <time>2018-08-16T17:55:13Z</time>
      </trkpt>
      <trkpt lat="43.95912" lon="1.91207">
        <ele>205</ele>
        <time>2018-08-16T17:55:21Z</time>
      </trkpt>
      <trkpt lat="43.95911" lon="1.91205">
        <ele>208</ele>
        <time>2018-08-16T17:55:27Z</time>
      </trkpt>
      <trkpt lat="43.95913" lon="1.91194">
        <ele>208</ele>
        <time>2018-08-16T17:55:33Z</time>
      </trkpt>
      <trkpt lat="43.95907" lon="1.91182">
        <ele>209</ele>
        <time>2018-08-16T17:55:39Z</time>
      </trkpt>
      <trkpt lat="43.95898" lon="1.91165">
        <ele>210</ele>
        <time>2018-08-16T17:55:45Z</time>
      </trkpt>
      <trkpt lat="43.9589" lon="1.91152">
        <ele>210</ele>
        <time>2018-08-16T17:55:51Z</time>
      </trkpt>
      <trkpt lat="43.95888" lon="1.91136">
        <ele>210</ele>
        <time>2018-08-16T17:55:57Z</time>
      </trkpt>
      <trkpt lat="43.95894" lon="1.91118">
        <ele>210</ele>
        <time>2018-08-16T17:56:03Z</time>
      </trkpt>
      <trkpt lat="43.95903" lon="1.911">
        <ele>210</ele>
        <time>2018-08-16T17:56:09Z</time>
      </trkpt>
      <trkpt lat="43.95911" lon="1.91082">
        <ele>215</ele>
        <time>2018-08-16T17:56:15Z</time>
      </trkpt>
      <trkpt lat="43.95916" lon="1.91066">
        <ele>219</ele>
        <time>2018-08-16T17:56:21Z</time>
      </trkpt>
      <trkpt lat="43.95916" lon="1.91055">
        <ele>219</ele>
        <time>2018-08-16T17:56:27Z</time>
      </trkpt>
      <trkpt lat="43.95919" lon="1.91039">
        <ele>218</ele>
        <time>2018-08-16T17:56:33Z</time>
      </trkpt>
      <trkpt lat="43.95919" lon="1.91027">
        <ele>214</ele>
        <time>2018-08-16T17:56:39Z</time>
      </trkpt>
      <trkpt lat="43.95919" lon="1.91012">
        <ele>208</ele>
        <time>2018-08-16T17:56:45Z</time>
      </trkpt>
      <trkpt lat="43.95918" lon="1.90998">
        <ele>207</ele>
        <time>2018-08-16T17:56:51Z</time>
      </trkpt>
      <trkpt lat="43.95916" lon="1.90989">
        <ele>207</ele>
        <time>2018-08-16T17:56:57Z</time>
      </trkpt>
      <trkpt lat="43.95914" lon="1.90978">
        <ele>210</ele>
        <time>2018-08-16T17:57:03Z</time>
      </trkpt>
      <trkpt lat="43.95908" lon="1.9097">
        <ele>217</ele>
        <time>2018-08-16T17:57:10Z</time>
      </trkpt>
      <trkpt lat="43.95906" lon="1.90956">
        <ele>223</ele>
        <time>2018-08-16T17:57:16Z</time>
      </trkpt>
      <trkpt lat="43.95906" lon="1.90942">
        <ele>227</ele>
        <time>2018-08-16T17:57:22Z</time>
      </trkpt>
      <trkpt lat="43.95906" lon="1.90928">
        <ele>227</ele>
        <time>2018-08-16T17:57:28Z</time>
      </trkpt>
      <trkpt lat="43.95902" lon="1.90916">
        <ele>226</ele>
        <time>2018-08-16T17:57:35Z</time>
      </trkpt>
      <trkpt lat="43.95898" lon="1.9091">
        <ele>226</ele>
        <time>2018-08-16T17:57:41Z</time>
      </trkpt>
      <trkpt lat="43.95891" lon="1.90903">
        <ele>229</ele>
        <time>2018-08-16T17:57:47Z</time>
      </trkpt>
      <trkpt lat="43.95882" lon="1.90897">
        <ele>229</ele>
        <time>2018-08-16T17:57:54Z</time>
      </trkpt>
      <trkpt lat="43.95874" lon="1.90892">
        <ele>229</ele>
        <time>2018-08-16T17:58:00Z</time>
      </trkpt>
      <trkpt lat="43.95868" lon="1.90886">
        <ele>229</ele>
        <time>2018-08-16T17:58:06Z</time>
      </trkpt>
      <trkpt lat="43.95862" lon="1.90881">
        <ele>232</ele>
        <time>2018-08-16T17:58:13Z</time>
      </trkpt>
      <trkpt lat="43.95853" lon="1.90876">
        <ele>233</ele>
        <time>2018-08-16T17:58:19Z</time>
      </trkpt>
      <trkpt lat="43.95845" lon="1.90871">
        <ele>237</ele>
        <time>2018-08-16T17:58:25Z</time>
      </trkpt>
      <trkpt lat="43.95835" lon="1.90866">
        <ele>239</ele>
        <time>2018-08-16T17:58:31Z</time>
      </trkpt>
      <trkpt lat="43.95825" lon="1.90863">
        <ele>243</ele>
        <time>2018-08-16T17:58:37Z</time>
      </trkpt>
      <trkpt lat="43.95814" lon="1.90863">
        <ele>248</ele>
        <time>2018-08-16T17:58:45Z</time>
      </trkpt>
      <trkpt lat="43.95802" lon="1.90859">
        <ele>248</ele>
        <time>2018-08-16T17:58:51Z</time>
      </trkpt>
      <trkpt lat="43.95786" lon="1.90865">
        <ele>248</ele>
        <time>2018-08-16T17:58:57Z</time>
      </trkpt>
      <trkpt lat="43.95779" lon="1.90871">
        <ele>246</ele>
        <time>2018-08-16T17:59:03Z</time>
      </trkpt>
      <trkpt lat="43.95768" lon="1.90878">
        <ele>244</ele>
        <time>2018-08-16T17:59:09Z</time>
      </trkpt>
      <trkpt lat="43.95753" lon="1.90877">
        <ele>240</ele>
        <time>2018-08-16T17:59:15Z</time>
      </trkpt>
      <trkpt lat="43.95734" lon="1.90874">
        <ele>239</ele>
        <time>2018-08-16T17:59:21Z</time>
      </trkpt>
      <trkpt lat="43.95726" lon="1.90865">
        <ele>238</ele>
        <time>2018-08-16T17:59:28Z</time>
      </trkpt>
      <trkpt lat="43.95722" lon="1.90864">
        <ele>238</ele>
        <time>2018-08-16T17:59:37Z</time>
      </trkpt>
      <trkpt lat="43.95721" lon="1.90865">
        <ele>237</ele>
        <time>2018-08-16T17:59:43Z</time>
      </trkpt>
      <trkpt lat="43.95719" lon="1.90863">
        <ele>234</ele>
        <time>2018-08-16T17:59:57Z</time>
      </trkpt>
      <trkpt lat="43.95718" lon="1.90861">
        <ele>234</ele>
        <time>2018-08-16T18:00:11Z</time>
      </trkpt>
      <trkpt lat="43.95717" lon="1.90861">
        <ele>234</ele>
        <time>2018-08-16T18:00:17Z</time>
      </trkpt>
      <trkpt lat="43.95713" lon="1.90859">
        <ele>239</ele>
        <time>2018-08-16T18:00:23Z</time>
      </trkpt>
      <trkpt lat="43.95705" lon="1.90854">
        <ele>240</ele>
        <time>2018-08-16T18:00:29Z</time>
      </trkpt>
      <trkpt lat="43.95696" lon="1.90845">
        <ele>241</ele>
        <time>2018-08-16T18:00:35Z</time>
      </trkpt>
      <trkpt lat="43.95678" lon="1.90826">
        <ele>241</ele>
        <time>2018-08-16T18:00:41Z</time>
      </trkpt>
      <trkpt lat="43.95658" lon="1.90798">
        <ele>241</ele>
        <time>2018-08-16T18:00:47Z</time>
      </trkpt>
      <trkpt lat="43.95643" lon="1.90775">
        <ele>236</ele>
        <time>2018-08-16T18:00:53Z</time>
      </trkpt>
      <trkpt lat="43.95633" lon="1.90763">
        <ele>234</ele>
        <time>2018-08-16T18:00:59Z</time>
      </trkpt>
      <trkpt lat="43.95617" lon="1.90755">
        <ele>234</ele>
        <time>2018-08-16T18:01:05Z</time>
      </trkpt>
      <trkpt lat="43.95589" lon="1.9072">
        <ele>234</ele>
        <time>2018-08-16T18:01:11Z</time>
      </trkpt>
      <trkpt lat="43.95557" lon="1.90684">
        <ele>232</ele>
        <time>2018-08-16T18:01:17Z</time>
      </trkpt>
      <trkpt lat="43.95544" lon="1.90668">
        <ele>229</ele>
        <time>2018-08-16T18:01:23Z</time>
      </trkpt>
      <trkpt lat="43.95553" lon="1.90648">
        <ele>227</ele>
        <time>2018-08-16T18:01:29Z</time>
      </trkpt>
      <trkpt lat="43.9557" lon="1.90621">
        <ele>223</ele>
        <time>2018-08-16T18:01:35Z</time>
      </trkpt>
      <trkpt lat="43.95582" lon="1.90582">
        <ele>220</ele>
        <time>2018-08-16T18:01:41Z</time>
      </trkpt>
      <trkpt lat="43.95592" lon="1.90509">
        <ele>215</ele>
        <time>2018-08-16T18:01:47Z</time>
      </trkpt>
      <trkpt lat="43.95582" lon="1.9048">
        <ele>209</ele>
        <time>2018-08-16T18:01:53Z</time>
      </trkpt>
      <trkpt lat="43.9555" lon="1.90498">
        <ele>204</ele>
        <time>2018-08-16T18:01:59Z</time>
      </trkpt>
      <trkpt lat="43.95512" lon="1.90529">
        <ele>202</ele>
        <time>2018-08-16T18:02:05Z</time>
      </trkpt>
      <trkpt lat="43.95467" lon="1.90552">
        <ele>197</ele>
        <time>2018-08-16T18:02:11Z</time>
      </trkpt>
      <trkpt lat="43.95435" lon="1.90532">
        <ele>191</ele>
        <time>2018-08-16T18:02:17Z</time>
      </trkpt>
      <trkpt lat="43.95407" lon="1.90476">
        <ele>185</ele>
        <time>2018-08-16T18:02:23Z</time>
      </trkpt>
      <trkpt lat="43.95406" lon="1.90433">
        <ele>184</ele>
        <time>2018-08-16T18:02:29Z</time>
      </trkpt>
      <trkpt lat="43.95409" lon="1.90419">
        <ele>184</ele>
        <time>2018-08-16T18:02:35Z</time>
      </trkpt>
      <trkpt lat="43.95412" lon="1.90407">
        <ele>184</ele>
        <time>2018-08-16T18:02:41Z</time>
      </trkpt>
      <trkpt lat="43.95415" lon="1.90394">
        <ele>184</ele>
        <time>2018-08-16T18:02:47Z</time>
      </trkpt>
      <trkpt lat="43.95419" lon="1.9038">
        <ele>184</ele>
        <time>2018-08-16T18:02:53Z</time>
      </trkpt>
      <trkpt lat="43.9542" lon="1.90367">
        <ele>184</ele>
        <time>2018-08-16T18:02:59Z</time>
      </trkpt>
      <trkpt lat="43.95419" lon="1.90354">
        <ele>184</ele>
        <time>2018-08-16T18:03:05Z</time>
      </trkpt>
      <trkpt lat="43.95416" lon="1.90346">
        <ele>184</ele>
        <time>2018-08-16T18:03:11Z</time>
      </trkpt>
      <trkpt lat="43.95414" lon="1.90338">
        <ele>184</ele>
        <time>2018-08-16T18:03:17Z</time>
      </trkpt>
      <trkpt lat="43.95409" lon="1.9033">
        <ele>185</ele>
        <time>2018-08-16T18:03:24Z</time>
      </trkpt>
      <trkpt lat="43.95406" lon="1.90319">
        <ele>185</ele>
        <time>2018-08-16T18:03:30Z</time>
      </trkpt>
      <trkpt lat="43.95404" lon="1.90311">
        <ele>185</ele>
        <time>2018-08-16T18:03:36Z</time>
      </trkpt>
      <trkpt lat="43.954" lon="1.90301">
        <ele>185</ele>
        <time>2018-08-16T18:03:43Z</time>
      </trkpt>
      <trkpt lat="43.95398" lon="1.90293">
        <ele>186</ele>
        <time>2018-08-16T18:03:49Z</time>
      </trkpt>
      <trkpt lat="43.95395" lon="1.90285">
        <ele>186</ele>
        <time>2018-08-16T18:03:55Z</time>
      </trkpt>
      <trkpt lat="43.95391" lon="1.90279">
        <ele>187</ele>
        <time>2018-08-16T18:04:01Z</time>
      </trkpt>
      <trkpt lat="43.95387" lon="1.90272">
        <ele>188</ele>
        <time>2018-08-16T18:04:08Z</time>
      </trkpt>
      <trkpt lat="43.95383" lon="1.90267">
        <ele>190</ele>
        <time>2018-08-16T18:04:14Z</time>
      </trkpt>
      <trkpt lat="43.95379" lon="1.90262">
        <ele>190</ele>
        <time>2018-08-16T18:04:20Z</time>
      </trkpt>
      <trkpt lat="43.95375" lon="1.90257">
        <ele>191</ele>
        <time>2018-08-16T18:04:26Z</time>
      </trkpt>
      <trkpt lat="43.95369" lon="1.90252">
        <ele>192</ele>
        <time>2018-08-16T18:04:32Z</time>
      </trkpt>
      <trkpt lat="43.95365" lon="1.90247">
        <ele>193</ele>
        <time>2018-08-16T18:04:38Z</time>
      </trkpt>
      <trkpt lat="43.95359" lon="1.90241">
        <ele>193</ele>
        <time>2018-08-16T18:04:44Z</time>
      </trkpt>
      <trkpt lat="43.95355" lon="1.90232">
        <ele>196</ele>
        <time>2018-08-16T18:04:51Z</time>
      </trkpt>
      <trkpt lat="43.95358" lon="1.90225">
        <ele>199</ele>
        <time>2018-08-16T18:04:57Z</time>
      </trkpt>
      <trkpt lat="43.95365" lon="1.90216">
        <ele>203</ele>
        <time>2018-08-16T18:05:03Z</time>
      </trkpt>
      <trkpt lat="43.95374" lon="1.90206">
        <ele>205</ele>
        <time>2018-08-16T18:05:09Z</time>
      </trkpt>
      <trkpt lat="43.95384" lon="1.90193">
        <ele>205</ele>
        <time>2018-08-16T18:05:15Z</time>
      </trkpt>
      <trkpt lat="43.95395" lon="1.90179">
        <ele>206</ele>
        <time>2018-08-16T18:05:21Z</time>
      </trkpt>
      <trkpt lat="43.95404" lon="1.90167">
        <ele>206</ele>
        <time>2018-08-16T18:05:27Z</time>
      </trkpt>
      <trkpt lat="43.95413" lon="1.90154">
        <ele>206</ele>
        <time>2018-08-16T18:05:33Z</time>
      </trkpt>
      <trkpt lat="43.95421" lon="1.9014">
        <ele>208</ele>
        <time>2018-08-16T18:05:39Z</time>
      </trkpt>
      <trkpt lat="43.95428" lon="1.90126">
        <ele>208</ele>
        <time>2018-08-16T18:05:45Z</time>
      </trkpt>
      <trkpt lat="43.9544" lon="1.90113">
        <ele>208</ele>
        <time>2018-08-16T18:05:51Z</time>
      </trkpt>
      <trkpt lat="43.95464" lon="1.90106">
        <ele>208</ele>
        <time>2018-08-16T18:05:57Z</time>
      </trkpt>
      <trkpt lat="43.95492" lon="1.90096">
        <ele>208</ele>
        <time>2018-08-16T18:06:03Z</time>
      </trkpt>
      <trkpt lat="43.9551" lon="1.90083">
        <ele>208</ele>
        <time>2018-08-16T18:06:09Z</time>
      </trkpt>
      <trkpt lat="43.9552" lon="1.90075">
        <ele>208</ele>
        <time>2018-08-16T18:06:15Z</time>
      </trkpt>
      <trkpt lat="43.95531" lon="1.90069">
        <ele>208</ele>
        <time>2018-08-16T18:06:21Z</time>
      </trkpt>
      <trkpt lat="43.95542" lon="1.90063">
        <ele>208</ele>
        <time>2018-08-16T18:06:27Z</time>
      </trkpt>
      <trkpt lat="43.95552" lon="1.90058">
        <ele>210</ele>
        <time>2018-08-16T18:06:33Z</time>
      </trkpt>
      <trkpt lat="43.95559" lon="1.90054">
        <ele>211</ele>
        <time>2018-08-16T18:06:39Z</time>
      </trkpt>
      <trkpt lat="43.9557" lon="1.90047">
        <ele>212</ele>
        <time>2018-08-16T18:06:45Z</time>
      </trkpt>
      <trkpt lat="43.9557" lon="1.90046">
        <ele>212</ele>
        <time>2018-08-16T18:06:51Z</time>
      </trkpt>
      <trkpt lat="43.95564" lon="1.90048">
        <ele>212</ele>
        <time>2018-08-16T18:06:58Z</time>
      </trkpt>
      <trkpt lat="43.95559" lon="1.90049">
        <ele>212</ele>
        <time>2018-08-16T18:07:04Z</time>
      </trkpt>
      <trkpt lat="43.95554" lon="1.90047">
        <ele>212</ele>
        <time>2018-08-16T18:07:10Z</time>
      </trkpt>
      <trkpt lat="43.95548" lon="1.90039">
        <ele>216</ele>
        <time>2018-08-16T18:07:17Z</time>
      </trkpt>
      <trkpt lat="43.95543" lon="1.90032">
        <ele>218</ele>
        <time>2018-08-16T18:07:23Z</time>
      </trkpt>
      <trkpt lat="43.95536" lon="1.90027">
        <ele>220</ele>
        <time>2018-08-16T18:07:29Z</time>
      </trkpt>
      <trkpt lat="43.95529" lon="1.90018">
        <ele>222</ele>
        <time>2018-08-16T18:07:35Z</time>
      </trkpt>
      <trkpt lat="43.95524" lon="1.90008">
        <ele>224</ele>
        <time>2018-08-16T18:07:41Z</time>
      </trkpt>
      <trkpt lat="43.95521" lon="1.89997">
        <ele>224</ele>
        <time>2018-08-16T18:07:48Z</time>
      </trkpt>
      <trkpt lat="43.95517" lon="1.89989">
        <ele>224</ele>
        <time>2018-08-16T18:07:54Z</time>
      </trkpt>
      <trkpt lat="43.95514" lon="1.8998">
        <ele>224</ele>
        <time>2018-08-16T18:08:00Z</time>
      </trkpt>
      <trkpt lat="43.95509" lon="1.89972">
        <ele>224</ele>
        <time>2018-08-16T18:08:07Z</time>
      </trkpt>
      <trkpt lat="43.95506" lon="1.89966">
        <ele>224</ele>
        <time>2018-08-16T18:08:13Z</time>
      </trkpt>
      <trkpt lat="43.95501" lon="1.89958">
        <ele>224</ele>
        <time>2018-08-16T18:08:19Z</time>
      </trkpt>
      <trkpt lat="43.95497" lon="1.8995">
        <ele>225</ele>
        <time>2018-08-16T18:08:25Z</time>
      </trkpt>
      <trkpt lat="43.95493" lon="1.89942">
        <ele>228</ele>
        <time>2018-08-16T18:08:31Z</time>
      </trkpt>
      <trkpt lat="43.95491" lon="1.89933">
        <ele>231</ele>
        <time>2018-08-16T18:08:38Z</time>
      </trkpt>
      <trkpt lat="43.95488" lon="1.89923">
        <ele>231</ele>
        <time>2018-08-16T18:08:44Z</time>
      </trkpt>
      <trkpt lat="43.95484" lon="1.89913">
        <ele>234</ele>
        <time>2018-08-16T18:08:50Z</time>
      </trkpt>
      <trkpt lat="43.9548" lon="1.89902">
        <ele>234</ele>
        <time>2018-08-16T18:08:56Z</time>
      </trkpt>
      <trkpt lat="43.9548" lon="1.89889">
        <ele>236</ele>
        <time>2018-08-16T18:09:02Z</time>
      </trkpt>
      <trkpt lat="43.95485" lon="1.89883">
        <ele>237</ele>
        <time>2018-08-16T18:09:08Z</time>
      </trkpt>
      <trkpt lat="43.95492" lon="1.89874">
        <ele>237</ele>
        <time>2018-08-16T18:09:14Z</time>
      </trkpt>
      <trkpt lat="43.95488" lon="1.8988">
        <ele>237</ele>
        <time>2018-08-16T18:09:21Z</time>
      </trkpt>
      <trkpt lat="43.95479" lon="1.89885">
        <ele>237</ele>
        <time>2018-08-16T18:09:28Z</time>
      </trkpt>
      <trkpt lat="43.95477" lon="1.89889">
        <ele>237</ele>
        <time>2018-08-16T18:09:35Z</time>
      </trkpt>
      <trkpt lat="43.95471" lon="1.89892">
        <ele>237</ele>
        <time>2018-08-16T18:09:41Z</time>
      </trkpt>
      <trkpt lat="43.95467" lon="1.89892">
        <ele>237</ele>
        <time>2018-08-16T18:09:49Z</time>
      </trkpt>
      <trkpt lat="43.95466" lon="1.8989">
        <ele>237</ele>
        <time>2018-08-16T18:09:57Z</time>
      </trkpt>
      <trkpt lat="43.95465" lon="1.89887">
        <ele>233</ele>
        <time>2018-08-16T18:10:07Z</time>
      </trkpt>
      <trkpt lat="43.95463" lon="1.8989">
        <ele>233</ele>
        <time>2018-08-16T18:10:13Z</time>
      </trkpt>
      <trkpt lat="43.9546" lon="1.89892">
        <ele>237</ele>
        <time>2018-08-16T18:10:21Z</time>
      </trkpt>
      <trkpt lat="43.95459" lon="1.8989">
        <ele>243</ele>
        <time>2018-08-16T18:10:32Z</time>
      </trkpt>
      <trkpt lat="43.95463" lon="1.89888">
        <ele>241</ele>
        <time>2018-08-16T18:10:41Z</time>
      </trkpt>
      <trkpt lat="43.95464" lon="1.89891">
        <ele>235</ele>
        <time>2018-08-16T18:10:59Z</time>
      </trkpt>
      <trkpt lat="43.95467" lon="1.89891">
        <ele>231</ele>
        <time>2018-08-16T18:11:07Z</time>
      </trkpt>
      <trkpt lat="43.95472" lon="1.89891">
        <ele>224</ele>
        <time>2018-08-16T18:11:14Z</time>
      </trkpt>
      <trkpt lat="43.9547" lon="1.89891">
        <ele>217</ele>
        <time>2018-08-16T18:11:23Z</time>
      </trkpt>
      <trkpt lat="43.95465" lon="1.89892">
        <ele>221</ele>
        <time>2018-08-16T18:11:30Z</time>
      </trkpt>
      <trkpt lat="43.95463" lon="1.89895">
        <ele>231</ele>
        <time>2018-08-16T18:11:40Z</time>
      </trkpt>
      <trkpt lat="43.95461" lon="1.89897">
        <ele>231</ele>
        <time>2018-08-16T18:11:48Z</time>
      </trkpt>
      <trkpt lat="43.95459" lon="1.89895">
        <ele>236</ele>
        <time>2018-08-16T18:12:01Z</time>
      </trkpt>
      <trkpt lat="43.95461" lon="1.89892">
        <ele>237</ele>
        <time>2018-08-16T18:12:09Z</time>
      </trkpt>
      <trkpt lat="43.9546" lon="1.89892">
        <ele>237</ele>
        <time>2018-08-16T18:12:15Z</time>
      </trkpt>
      <trkpt lat="43.9546" lon="1.89891">
        <ele>242</ele>
        <time>2018-08-16T18:12:27Z</time>
      </trkpt>
      <trkpt lat="43.95459" lon="1.89892">
        <ele>242</ele>
        <time>2018-08-16T18:12:40Z</time>
      </trkpt>
      <trkpt lat="43.95448" lon="1.89899">
        <ele>242</ele>
        <time>2018-08-16T18:12:46Z</time>
      </trkpt>
      <trkpt lat="43.95439" lon="1.89884">
        <ele>242</ele>
        <time>2018-08-16T18:12:52Z</time>
      </trkpt>
      <trkpt lat="43.95436" lon="1.89868">
        <ele>242</ele>
        <time>2018-08-16T18:12:58Z</time>
      </trkpt>
      <trkpt lat="43.9543" lon="1.89843">
        <ele>241</ele>
        <time>2018-08-16T18:13:04Z</time>
      </trkpt>
      <trkpt lat="43.95405" lon="1.89765">
        <ele>234</ele>
        <time>2018-08-16T18:13:11Z</time>
      </trkpt>
      <trkpt lat="43.95374" lon="1.89681">
        <ele>224</ele>
        <time>2018-08-16T18:13:17Z</time>
      </trkpt>
      <trkpt lat="43.95359" lon="1.89637">
        <ele>217</ele>
        <time>2018-08-16T18:13:23Z</time>
      </trkpt>
      <trkpt lat="43.9534" lon="1.89606">
        <ele>213</ele>
        <time>2018-08-16T18:13:29Z</time>
      </trkpt>
      <trkpt lat="43.95314" lon="1.89579">
        <ele>213</ele>
        <time>2018-08-16T18:13:35Z</time>
      </trkpt>
      <trkpt lat="43.95292" lon="1.8955">
        <ele>207</ele>
        <time>2018-08-16T18:13:41Z</time>
      </trkpt>
      <trkpt lat="43.95273" lon="1.89495">
        <ele>201</ele>
        <time>2018-08-16T18:13:47Z</time>
      </trkpt>
      <trkpt lat="43.95263" lon="1.89435">
        <ele>194</ele>
        <time>2018-08-16T18:13:53Z</time>
      </trkpt>
      <trkpt lat="43.95253" lon="1.89396">
        <ele>187</ele>
        <time>2018-08-16T18:13:59Z</time>
      </trkpt>
      <trkpt lat="43.9523" lon="1.89373">
        <ele>182</ele>
        <time>2018-08-16T18:14:05Z</time>
      </trkpt>
      <trkpt lat="43.95206" lon="1.89347">
        <ele>176</ele>
        <time>2018-08-16T18:14:11Z</time>
      </trkpt>
      <trkpt lat="43.95178" lon="1.8934">
        <ele>174</ele>
        <time>2018-08-16T18:14:17Z</time>
      </trkpt>
      <trkpt lat="43.95153" lon="1.89321">
        <ele>174</ele>
        <time>2018-08-16T18:14:23Z</time>
      </trkpt>
      <trkpt lat="43.95132" lon="1.89298">
        <ele>173</ele>
        <time>2018-08-16T18:14:29Z</time>
      </trkpt>
      <trkpt lat="43.95109" lon="1.893">
        <ele>173</ele>
        <time>2018-08-16T18:14:35Z</time>
      </trkpt>
      <trkpt lat="43.95089" lon="1.89318">
        <ele>173</ele>
        <time>2018-08-16T18:14:41Z</time>
      </trkpt>
      <trkpt lat="43.95073" lon="1.89338">
        <ele>173</ele>
        <time>2018-08-16T18:14:47Z</time>
      </trkpt>
      <trkpt lat="43.95058" lon="1.89357">
        <ele>173</ele>
        <time>2018-08-16T18:14:53Z</time>
      </trkpt>
      <trkpt lat="43.95045" lon="1.89375">
        <ele>173</ele>
        <time>2018-08-16T18:14:59Z</time>
      </trkpt>
      <trkpt lat="43.95033" lon="1.89391">
        <ele>173</ele>
        <time>2018-08-16T18:15:05Z</time>
      </trkpt>
      <trkpt lat="43.95018" lon="1.89409">
        <ele>173</ele>
        <time>2018-08-16T18:15:11Z</time>
      </trkpt>
      <trkpt lat="43.95003" lon="1.89426">
        <ele>173</ele>
        <time>2018-08-16T18:15:17Z</time>
      </trkpt>
      <trkpt lat="43.94987" lon="1.89443">
        <ele>174</ele>
        <time>2018-08-16T18:15:23Z</time>
      </trkpt>
      <trkpt lat="43.94976" lon="1.89458">
        <ele>175</ele>
        <time>2018-08-16T18:15:29Z</time>
      </trkpt>
      <trkpt lat="43.94966" lon="1.89472">
        <ele>175</ele>
        <time>2018-08-16T18:15:35Z</time>
      </trkpt>
      <trkpt lat="43.94956" lon="1.89467">
        <ele>175</ele>
        <time>2018-08-16T18:15:41Z</time>
      </trkpt>
      <trkpt lat="43.94946" lon="1.89456">
        <ele>175</ele>
        <time>2018-08-16T18:15:47Z</time>
      </trkpt>
      <trkpt lat="43.94934" lon="1.89446">
        <ele>179</ele>
        <time>2018-08-16T18:15:53Z</time>
      </trkpt>
      <trkpt lat="43.94922" lon="1.89436">
        <ele>185</ele>
        <time>2018-08-16T18:15:59Z</time>
      </trkpt>
      <trkpt lat="43.94913" lon="1.89427">
        <ele>191</ele>
        <time>2018-08-16T18:16:05Z</time>
      </trkpt>
      <trkpt lat="43.94904" lon="1.89417">
        <ele>193</ele>
        <time>2018-08-16T18:16:11Z</time>
      </trkpt>
      <trkpt lat="43.94894" lon="1.8941">
        <ele>197</ele>
        <time>2018-08-16T18:16:17Z</time>
      </trkpt>
      <trkpt lat="43.94884" lon="1.89406">
        <ele>198</ele>
        <time>2018-08-16T18:16:23Z</time>
      </trkpt>
      <trkpt lat="43.94876" lon="1.89407">
        <ele>200</ele>
        <time>2018-08-16T18:16:29Z</time>
      </trkpt>
      <trkpt lat="43.94868" lon="1.8941">
        <ele>201</ele>
        <time>2018-08-16T18:16:35Z</time>
      </trkpt>
      <trkpt lat="43.9486" lon="1.89413">
        <ele>202</ele>
        <time>2018-08-16T18:16:41Z</time>
      </trkpt>
      <trkpt lat="43.94852" lon="1.89415">
        <ele>205</ele>
        <time>2018-08-16T18:16:47Z</time>
      </trkpt>
      <trkpt lat="43.94842" lon="1.89416">
        <ele>209</ele>
        <time>2018-08-16T18:16:53Z</time>
      </trkpt>
      <trkpt lat="43.94836" lon="1.89412">
        <ele>210</ele>
        <time>2018-08-16T18:17:00Z</time>
      </trkpt>
      <trkpt lat="43.94831" lon="1.8941">
        <ele>210</ele>
        <time>2018-08-16T18:17:06Z</time>
      </trkpt>
      <trkpt lat="43.94823" lon="1.8941">
        <ele>210</ele>
        <time>2018-08-16T18:17:12Z</time>
      </trkpt>
      <trkpt lat="43.94816" lon="1.89408">
        <ele>210</ele>
        <time>2018-08-16T18:17:18Z</time>
      </trkpt>
      <trkpt lat="43.94809" lon="1.89407">
        <ele>210</ele>
        <time>2018-08-16T18:17:24Z</time>
      </trkpt>
      <trkpt lat="43.94801" lon="1.89408">
        <ele>210</ele>
        <time>2018-08-16T18:17:30Z</time>
      </trkpt>
      <trkpt lat="43.94796" lon="1.89407">
        <ele>210</ele>
        <time>2018-08-16T18:17:36Z</time>
      </trkpt>
      <trkpt lat="43.94791" lon="1.89408">
        <ele>210</ele>
        <time>2018-08-16T18:17:42Z</time>
      </trkpt>
      <trkpt lat="43.94787" lon="1.89409">
        <ele>210</ele>
        <time>2018-08-16T18:17:48Z</time>
      </trkpt>
      <trkpt lat="43.94782" lon="1.8941">
        <ele>210</ele>
        <time>2018-08-16T18:17:54Z</time>
      </trkpt>
      <trkpt lat="43.94777" lon="1.8941">
        <ele>210</ele>
        <time>2018-08-16T18:18:01Z</time>
      </trkpt>
      <trkpt lat="43.94775" lon="1.89412">
        <ele>210</ele>
        <time>2018-08-16T18:18:08Z</time>
      </trkpt>
      <trkpt lat="43.94772" lon="1.89424">
        <ele>210</ele>
        <time>2018-08-16T18:18:15Z</time>
      </trkpt>
      <trkpt lat="43.94769" lon="1.89432">
        <ele>210</ele>
        <time>2018-08-16T18:18:22Z</time>
      </trkpt>
      <trkpt lat="43.94772" lon="1.89435">
        <ele>210</ele>
        <time>2018-08-16T18:18:28Z</time>
      </trkpt>
      <trkpt lat="43.94773" lon="1.89429">
        <ele>210</ele>
        <time>2018-08-16T18:18:35Z</time>
      </trkpt>
      <trkpt lat="43.94775" lon="1.89421">
        <ele>210</ele>
        <time>2018-08-16T18:18:42Z</time>
      </trkpt>
      <trkpt lat="43.94771" lon="1.89409">
        <ele>211</ele>
        <time>2018-08-16T18:18:48Z</time>
      </trkpt>
      <trkpt lat="43.94768" lon="1.89403">
        <ele>216</ele>
        <time>2018-08-16T18:18:54Z</time>
      </trkpt>
      <trkpt lat="43.94766" lon="1.894">
        <ele>218</ele>
        <time>2018-08-16T18:19:03Z</time>
      </trkpt>
      <trkpt lat="43.94762" lon="1.89399">
        <ele>218</ele>
        <time>2018-08-16T18:19:10Z</time>
      </trkpt>
      <trkpt lat="43.94761" lon="1.894">
        <ele>218</ele>
        <time>2018-08-16T18:19:18Z</time>
      </trkpt>
      <trkpt lat="43.94762" lon="1.89401">
        <ele>218</ele>
        <time>2018-08-16T18:19:25Z</time>
      </trkpt>
      <trkpt lat="43.94764" lon="1.89401">
        <ele>218</ele>
        <time>2018-08-16T18:19:38Z</time>
      </trkpt>
      <trkpt lat="43.94761" lon="1.89401">
        <ele>218</ele>
        <time>2018-08-16T18:19:46Z</time>
      </trkpt>
      <trkpt lat="43.94761" lon="1.89403">
        <ele>218</ele>
        <time>2018-08-16T18:19:54Z</time>
      </trkpt>
      <trkpt lat="43.94756" lon="1.89406">
        <ele>218</ele>
        <time>2018-08-16T18:20:00Z</time>
      </trkpt>
      <trkpt lat="43.94751" lon="1.89406">
        <ele>219</ele>
        <time>2018-08-16T18:20:06Z</time>
      </trkpt>
      <trkpt lat="43.94748" lon="1.89409">
        <ele>222</ele>
        <time>2018-08-16T18:20:12Z</time>
      </trkpt>
      <trkpt lat="43.94742" lon="1.89407">
        <ele>222</ele>
        <time>2018-08-16T18:20:18Z</time>
      </trkpt>
      <trkpt lat="43.94735" lon="1.89403">
        <ele>222</ele>
        <time>2018-08-16T18:20:25Z</time>
      </trkpt>
      <trkpt lat="43.94735" lon="1.89401">
        <ele>224</ele>
        <time>2018-08-16T18:20:33Z</time>
      </trkpt>
      <trkpt lat="43.94736" lon="1.894">
        <ele>224</ele>
        <time>2018-08-16T18:20:46Z</time>
      </trkpt>
      <trkpt lat="43.94738" lon="1.89401">
        <ele>224</ele>
        <time>2018-08-16T18:20:53Z</time>
      </trkpt>
      <trkpt lat="43.94739" lon="1.89402">
        <ele>221</ele>
        <time>2018-08-16T18:20:59Z</time>
      </trkpt>
      <trkpt lat="43.9474" lon="1.89402">
        <ele>216</ele>
        <time>2018-08-16T18:21:07Z</time>
      </trkpt>
      <trkpt lat="43.94732" lon="1.89397">
        <ele>216</ele>
        <time>2018-08-16T18:21:13Z</time>
      </trkpt>
      <trkpt lat="43.94726" lon="1.89386">
        <ele>218</ele>
        <time>2018-08-16T18:21:20Z</time>
      </trkpt>
      <trkpt lat="43.94721" lon="1.89382">
        <ele>222</ele>
        <time>2018-08-16T18:21:26Z</time>
      </trkpt>
      <trkpt lat="43.94716" lon="1.89377">
        <ele>225</ele>
        <time>2018-08-16T18:21:32Z</time>
      </trkpt>
      <trkpt lat="43.94713" lon="1.89374">
        <ele>226</ele>
        <time>2018-08-16T18:21:39Z</time>
      </trkpt>
      <trkpt lat="43.94714" lon="1.89373">
        <ele>226</ele>
        <time>2018-08-16T18:21:48Z</time>
      </trkpt>
      <trkpt lat="43.94707" lon="1.89364">
        <ele>226</ele>
        <time>2018-08-16T18:21:55Z</time>
      </trkpt>
      <trkpt lat="43.94703" lon="1.89356">
        <ele>226</ele>
        <time>2018-08-16T18:22:02Z</time>
      </trkpt>
      <trkpt lat="43.94697" lon="1.89348">
        <ele>226</ele>
        <time>2018-08-16T18:22:09Z</time>
      </trkpt>
      <trkpt lat="43.94693" lon="1.89343">
        <ele>227</ele>
        <time>2018-08-16T18:22:15Z</time>
      </trkpt>
      <trkpt lat="43.94687" lon="1.89337">
        <ele>228</ele>
        <time>2018-08-16T18:22:21Z</time>
      </trkpt>
      <trkpt lat="43.94679" lon="1.89332">
        <ele>230</ele>
        <time>2018-08-16T18:22:27Z</time>
      </trkpt>
      <trkpt lat="43.94673" lon="1.89328">
        <ele>231</ele>
        <time>2018-08-16T18:22:33Z</time>
      </trkpt>
      <trkpt lat="43.94666" lon="1.89325">
        <ele>233</ele>
        <time>2018-08-16T18:22:39Z</time>
      </trkpt>
      <trkpt lat="43.94657" lon="1.89319">
        <ele>235</ele>
        <time>2018-08-16T18:22:46Z</time>
      </trkpt>
      <trkpt lat="43.94649" lon="1.89314">
        <ele>236</ele>
        <time>2018-08-16T18:22:52Z</time>
      </trkpt>
      <trkpt lat="43.94642" lon="1.89309">
        <ele>236</ele>
        <time>2018-08-16T18:22:58Z</time>
      </trkpt>
      <trkpt lat="43.94635" lon="1.89303">
        <ele>236</ele>
        <time>2018-08-16T18:23:04Z</time>
      </trkpt>
      <trkpt lat="43.94634" lon="1.89295">
        <ele>236</ele>
        <time>2018-08-16T18:23:10Z</time>
      </trkpt>
      <trkpt lat="43.94635" lon="1.89286">
        <ele>236</ele>
        <time>2018-08-16T18:23:16Z</time>
      </trkpt>
      <trkpt lat="43.94638" lon="1.89276">
        <ele>235</ele>
        <time>2018-08-16T18:23:22Z</time>
      </trkpt>
      <trkpt lat="43.94644" lon="1.89262">
        <ele>234</ele>
        <time>2018-08-16T18:23:28Z</time>
      </trkpt>
      <trkpt lat="43.94649" lon="1.89248">
        <ele>233</ele>
        <time>2018-08-16T18:23:34Z</time>
      </trkpt>
      <trkpt lat="43.94648" lon="1.89234">
        <ele>233</ele>
        <time>2018-08-16T18:23:40Z</time>
      </trkpt>
      <trkpt lat="43.94636" lon="1.89225">
        <ele>233</ele>
        <time>2018-08-16T18:23:46Z</time>
      </trkpt>
      <trkpt lat="43.94624" lon="1.89236">
        <ele>233</ele>
        <time>2018-08-16T18:23:52Z</time>
      </trkpt>
      <trkpt lat="43.94612" lon="1.89265">
        <ele>231</ele>
        <time>2018-08-16T18:23:59Z</time>
      </trkpt>
      <trkpt lat="43.94598" lon="1.89293">
        <ele>231</ele>
        <time>2018-08-16T18:24:05Z</time>
      </trkpt>
      <trkpt lat="43.94574" lon="1.89297">
        <ele>231</ele>
        <time>2018-08-16T18:24:11Z</time>
      </trkpt>
      <trkpt lat="43.94542" lon="1.89273">
        <ele>228</ele>
        <time>2018-08-16T18:24:17Z</time>
      </trkpt>
      <trkpt lat="43.94504" lon="1.89266">
        <ele>224</ele>
        <time>2018-08-16T18:24:23Z</time>
      </trkpt>
      <trkpt lat="43.94454" lon="1.89268">
        <ele>222</ele>
        <time>2018-08-16T18:24:30Z</time>
      </trkpt>
      <trkpt lat="43.94416" lon="1.89267">
        <ele>222</ele>
        <time>2018-08-16T18:24:36Z</time>
      </trkpt>
      <trkpt lat="43.94374" lon="1.89268">
        <ele>220</ele>
        <time>2018-08-16T18:24:42Z</time>
      </trkpt>
      <trkpt lat="43.94342" lon="1.89266">
        <ele>220</ele>
        <time>2018-08-16T18:24:48Z</time>
      </trkpt>
      <trkpt lat="43.94337" lon="1.89265">
        <ele>220</ele>
        <time>2018-08-16T18:24:56Z</time>
      </trkpt>
      <trkpt lat="43.94319" lon="1.89262">
        <ele>220</ele>
        <time>2018-08-16T18:25:03Z</time>
      </trkpt>
      <trkpt lat="43.94293" lon="1.89262">
        <ele>220</ele>
        <time>2018-08-16T18:25:09Z</time>
      </trkpt>
      <trkpt lat="43.94255" lon="1.89262">
        <ele>220</ele>
        <time>2018-08-16T18:25:15Z</time>
      </trkpt>
      <trkpt lat="43.94213" lon="1.89266">
        <ele>214</ele>
        <time>2018-08-16T18:25:21Z</time>
      </trkpt>
      <trkpt lat="43.94162" lon="1.89273">
        <ele>208</ele>
        <time>2018-08-16T18:25:27Z</time>
      </trkpt>
      <trkpt lat="43.94094" lon="1.89271">
        <ele>201</ele>
        <time>2018-08-16T18:25:34Z</time>
      </trkpt>
      <trkpt lat="43.94049" lon="1.89218">
        <ele>195</ele>
        <time>2018-08-16T18:25:40Z</time>
      </trkpt>
      <trkpt lat="43.94005" lon="1.89203">
        <ele>190</ele>
        <time>2018-08-16T18:25:46Z</time>
      </trkpt>
      <trkpt lat="43.93968" lon="1.89249">
        <ele>188</ele>
        <time>2018-08-16T18:25:52Z</time>
      </trkpt>
      <trkpt lat="43.93915" lon="1.8928">
        <ele>187</ele>
        <time>2018-08-16T18:25:59Z</time>
      </trkpt>
      <trkpt lat="43.93872" lon="1.89303">
        <ele>187</ele>
        <time>2018-08-16T18:26:05Z</time>
      </trkpt>
      <trkpt lat="43.93832" lon="1.89322">
        <ele>187</ele>
        <time>2018-08-16T18:26:11Z</time>
      </trkpt>
      <trkpt lat="43.93793" lon="1.89325">
        <ele>187</ele>
        <time>2018-08-16T18:26:17Z</time>
      </trkpt>
      <trkpt lat="43.9376" lon="1.89323">
        <ele>192</ele>
        <time>2018-08-16T18:26:24Z</time>
      </trkpt>
      <trkpt lat="43.93745" lon="1.8932">
        <ele>198</ele>
        <time>2018-08-16T18:26:30Z</time>
      </trkpt>
      <trkpt lat="43.93732" lon="1.8931">
        <ele>202</ele>
        <time>2018-08-16T18:26:36Z</time>
      </trkpt>
      <trkpt lat="43.93726" lon="1.89305">
        <ele>202</ele>
        <time>2018-08-16T18:26:42Z</time>
      </trkpt>
      <trkpt lat="43.93725" lon="1.89313">
        <ele>202</ele>
        <time>2018-08-16T18:26:49Z</time>
      </trkpt>
      <trkpt lat="43.93723" lon="1.89307">
        <ele>202</ele>
        <time>2018-08-16T18:26:55Z</time>
      </trkpt>
      <trkpt lat="43.93728" lon="1.89305">
        <ele>202</ele>
        <time>2018-08-16T18:27:02Z</time>
      </trkpt>
      <trkpt lat="43.93725" lon="1.89299">
        <ele>202</ele>
        <time>2018-08-16T18:27:08Z</time>
      </trkpt>
      <trkpt lat="43.93703" lon="1.89276">
        <ele>202</ele>
        <time>2018-08-16T18:27:15Z</time>
      </trkpt>
      <trkpt lat="43.93665" lon="1.89241">
        <ele>199</ele>
        <time>2018-08-16T18:27:21Z</time>
      </trkpt>
      <trkpt lat="43.93627" lon="1.89205">
        <ele>196</ele>
        <time>2018-08-16T18:27:27Z</time>
      </trkpt>
      <trkpt lat="43.93612" lon="1.89154">
        <ele>194</ele>
        <time>2018-08-16T18:27:33Z</time>
      </trkpt>
      <trkpt lat="43.93583" lon="1.8911">
        <ele>190</ele>
        <time>2018-08-16T18:27:40Z</time>
      </trkpt>
      <trkpt lat="43.93534" lon="1.89092">
        <ele>184</ele>
        <time>2018-08-16T18:27:46Z</time>
      </trkpt>
      <trkpt lat="43.93484" lon="1.89089">
        <ele>178</ele>
        <time>2018-08-16T18:27:52Z</time>
      </trkpt>
      <trkpt lat="43.93467" lon="1.89047">
        <ele>173</ele>
        <time>2018-08-16T18:27:58Z</time>
      </trkpt>
      <trkpt lat="43.93452" lon="1.8899">
        <ele>168</ele>
        <time>2018-08-16T18:28:04Z</time>
      </trkpt>
      <trkpt lat="43.93428" lon="1.88949">
        <ele>165</ele>
        <time>2018-08-16T18:28:10Z</time>
      </trkpt>
      <trkpt lat="43.93428" lon="1.88949">
        <ele>161</ele>
        <time>2018-08-16T18:28:25Z</time>
      </trkpt>
      <trkpt lat="43.93426" lon="1.88946">
        <ele>161</ele>
        <time>2018-08-16T18:28:40Z</time>
      </trkpt>
      <trkpt lat="43.93409" lon="1.88926">
        <ele>161</ele>
        <time>2018-08-16T18:28:47Z</time>
      </trkpt>
      <trkpt lat="43.93386" lon="1.88934">
        <ele>158</ele>
        <time>2018-08-16T18:28:53Z</time>
      </trkpt>
      <trkpt lat="43.9337" lon="1.88938">
        <ele>158</ele>
        <time>2018-08-16T18:28:59Z</time>
      </trkpt>
      <trkpt lat="43.93366" lon="1.8893">
        <ele>157</ele>
        <time>2018-08-16T18:29:09Z</time>
      </trkpt>
      <trkpt lat="43.93365" lon="1.88928">
        <ele>157</ele>
        <time>2018-08-16T18:29:27Z</time>
      </trkpt>
      <trkpt lat="43.93364" lon="1.88926">
        <ele>157</ele>
        <time>2018-08-16T18:29:40Z</time>
      </trkpt>
      <trkpt lat="43.93365" lon="1.88925">
        <ele>157</ele>
        <time>2018-08-16T18:29:50Z</time>
      </trkpt>
      <trkpt lat="43.93367" lon="1.88925">
        <ele>155</ele>
        <time>2018-08-16T18:30:00Z</time>
      </trkpt>
      <trkpt lat="43.93366" lon="1.88926">
        <ele>155</ele>
        <time>2018-08-16T18:30:14Z</time>
      </trkpt>
      <trkpt lat="43.93365" lon="1.88926">
        <ele>155</ele>
        <time>2018-08-16T18:30:24Z</time>
      </trkpt>
      <trkpt lat="43.93365" lon="1.88928">
        <ele>155</ele>
        <time>2018-08-16T18:30:48Z</time>
      </trkpt>
      <trkpt lat="43.93365" lon="1.88917">
        <ele>155</ele>
        <time>2018-08-16T18:30:54Z</time>
      </trkpt>
      <trkpt lat="43.93354" lon="1.88904">
        <ele>155</ele>
        <time>2018-08-16T18:31:00Z</time>
      </trkpt>
      <trkpt lat="43.93332" lon="1.88896">
        <ele>155</ele>
        <time>2018-08-16T18:31:06Z</time>
      </trkpt>
      <trkpt lat="43.93308" lon="1.88898">
        <ele>155</ele>
        <time>2018-08-16T18:31:12Z</time>
      </trkpt>
      <trkpt lat="43.9328" lon="1.88903">
        <ele>155</ele>
        <time>2018-08-16T18:31:18Z</time>
      </trkpt>
      <trkpt lat="43.93251" lon="1.88909">
        <ele>155</ele>
        <time>2018-08-16T18:31:24Z</time>
      </trkpt>
      <trkpt lat="43.93224" lon="1.88915">
        <ele>155</ele>
        <time>2018-08-16T18:31:30Z</time>
      </trkpt>
      <trkpt lat="43.93202" lon="1.8892">
        <ele>155</ele>
        <time>2018-08-16T18:31:36Z</time>
      </trkpt>
      <trkpt lat="43.93181" lon="1.88922">
        <ele>155</ele>
        <time>2018-08-16T18:31:42Z</time>
      </trkpt>
      <trkpt lat="43.93158" lon="1.88916">
        <ele>156</ele>
        <time>2018-08-16T18:31:48Z</time>
      </trkpt>
      <trkpt lat="43.93139" lon="1.88906">
        <ele>156</ele>
        <time>2018-08-16T18:31:54Z</time>
      </trkpt>
      <trkpt lat="43.93135" lon="1.88902">
        <ele>156</ele>
        <time>2018-08-16T18:32:00Z</time>
      </trkpt>
      <trkpt lat="43.93137" lon="1.88891">
        <ele>156</ele>
        <time>2018-08-16T18:32:06Z</time>
      </trkpt>
      <trkpt lat="43.93143" lon="1.88874">
        <ele>156</ele>
        <time>2018-08-16T18:32:12Z</time>
      </trkpt>
      <trkpt lat="43.93151" lon="1.88857">
        <ele>155</ele>
        <time>2018-08-16T18:32:18Z</time>
      </trkpt>
      <trkpt lat="43.93163" lon="1.88839">
        <ele>153</ele>
        <time>2018-08-16T18:32:24Z</time>
      </trkpt>
      <trkpt lat="43.93172" lon="1.88818">
        <ele>153</ele>
        <time>2018-08-16T18:32:30Z</time>
      </trkpt>
      <trkpt lat="43.93182" lon="1.88794">
        <ele>151</ele>
        <time>2018-08-16T18:32:36Z</time>
      </trkpt>
      <trkpt lat="43.93194" lon="1.88771">
        <ele>150</ele>
        <time>2018-08-16T18:32:42Z</time>
      </trkpt>
      <trkpt lat="43.93205" lon="1.88745">
        <ele>147</ele>
        <time>2018-08-16T18:32:48Z</time>
      </trkpt>
      <trkpt lat="43.93216" lon="1.8872">
        <ele>145</ele>
        <time>2018-08-16T18:32:54Z</time>
      </trkpt>
      <trkpt lat="43.93228" lon="1.88697">
        <ele>145</ele>
        <time>2018-08-16T18:33:00Z</time>
      </trkpt>
      <trkpt lat="43.93238" lon="1.88676">
        <ele>145</ele>
        <time>2018-08-16T18:33:06Z</time>
      </trkpt>
      <trkpt lat="43.93248" lon="1.88654">
        <ele>145</ele>
        <time>2018-08-16T18:33:12Z</time>
      </trkpt>
      <trkpt lat="43.93256" lon="1.88632">
        <ele>148</ele>
        <time>2018-08-16T18:33:18Z</time>
      </trkpt>
      <trkpt lat="43.93265" lon="1.8861">
        <ele>148</ele>
        <time>2018-08-16T18:33:24Z</time>
      </trkpt>
      <trkpt lat="43.93282" lon="1.886">
        <ele>148</ele>
        <time>2018-08-16T18:33:30Z</time>
      </trkpt>
      <trkpt lat="43.93303" lon="1.88598">
        <ele>149</ele>
        <time>2018-08-16T18:33:36Z</time>
      </trkpt>
      <trkpt lat="43.93325" lon="1.88606">
        <ele>149</ele>
        <time>2018-08-16T18:33:42Z</time>
      </trkpt>
      <trkpt lat="43.93345" lon="1.88617">
        <ele>149</ele>
        <time>2018-08-16T18:33:48Z</time>
      </trkpt>
      <trkpt lat="43.93364" lon="1.88625">
        <ele>149</ele>
        <time>2018-08-16T18:33:54Z</time>
      </trkpt>
      <trkpt lat="43.93384" lon="1.88626">
        <ele>149</ele>
        <time>2018-08-16T18:34:00Z</time>
      </trkpt>
      <trkpt lat="43.93402" lon="1.88622">
        <ele>149</ele>
        <time>2018-08-16T18:34:06Z</time>
      </trkpt>
      <trkpt lat="43.93422" lon="1.88619">
        <ele>149</ele>
        <time>2018-08-16T18:34:12Z</time>
      </trkpt>
      <trkpt lat="43.9344" lon="1.88612">
        <ele>149</ele>
        <time>2018-08-16T18:34:18Z</time>
      </trkpt>
      <trkpt lat="43.93458" lon="1.88603">
        <ele>149</ele>
        <time>2018-08-16T18:34:24Z</time>
      </trkpt>
      <trkpt lat="43.9347" lon="1.88587">
        <ele>149</ele>
        <time>2018-08-16T18:34:30Z</time>
      </trkpt>
      <trkpt lat="43.93477" lon="1.88573">
        <ele>149</ele>
        <time>2018-08-16T18:34:36Z</time>
      </trkpt>
      <trkpt lat="43.93486" lon="1.8856">
        <ele>149</ele>
        <time>2018-08-16T18:34:42Z</time>
      </trkpt>
      <trkpt lat="43.93495" lon="1.88547">
        <ele>150</ele>
        <time>2018-08-16T18:34:48Z</time>
      </trkpt>
      <trkpt lat="43.93503" lon="1.8853">
        <ele>155</ele>
        <time>2018-08-16T18:34:54Z</time>
      </trkpt>
      <trkpt lat="43.93509" lon="1.88515">
        <ele>158</ele>
        <time>2018-08-16T18:35:00Z</time>
      </trkpt>
      <trkpt lat="43.93515" lon="1.88501">
        <ele>161</ele>
        <time>2018-08-16T18:35:06Z</time>
      </trkpt>
      <trkpt lat="43.93522" lon="1.88486">
        <ele>161</ele>
        <time>2018-08-16T18:35:12Z</time>
      </trkpt>
      <trkpt lat="43.93527" lon="1.8847">
        <ele>162</ele>
        <time>2018-08-16T18:35:18Z</time>
      </trkpt>
      <trkpt lat="43.9353" lon="1.88457">
        <ele>163</ele>
        <time>2018-08-16T18:35:24Z</time>
      </trkpt>
      <trkpt lat="43.93533" lon="1.88442">
        <ele>163</ele>
        <time>2018-08-16T18:35:30Z</time>
      </trkpt>
      <trkpt lat="43.93536" lon="1.88427">
        <ele>163</ele>
        <time>2018-08-16T18:35:36Z</time>
      </trkpt>
      <trkpt lat="43.93539" lon="1.88412">
        <ele>165</ele>
        <time>2018-08-16T18:35:42Z</time>
      </trkpt>
      <trkpt lat="43.93543" lon="1.88398">
        <ele>167</ele>
        <time>2018-08-16T18:35:48Z</time>
      </trkpt>
      <trkpt lat="43.93549" lon="1.88382">
        <ele>167</ele>
        <time>2018-08-16T18:35:54Z</time>
      </trkpt>
      <trkpt lat="43.93555" lon="1.88365">
        <ele>167</ele>
        <time>2018-08-16T18:36:00Z</time>
      </trkpt>
      <trkpt lat="43.93563" lon="1.88348">
        <ele>166</ele>
        <time>2018-08-16T18:36:06Z</time>
      </trkpt>
      <trkpt lat="43.93572" lon="1.8833">
        <ele>163</ele>
        <time>2018-08-16T18:36:12Z</time>
      </trkpt>
      <trkpt lat="43.93581" lon="1.88308">
        <ele>162</ele>
        <time>2018-08-16T18:36:18Z</time>
      </trkpt>
      <trkpt lat="43.93589" lon="1.88303">
        <ele>162</ele>
        <time>2018-08-16T18:36:24Z</time>
      </trkpt>
      <trkpt lat="43.93585" lon="1.88312">
        <ele>162</ele>
        <time>2018-08-16T18:36:31Z</time>
      </trkpt>
      <trkpt lat="43.93586" lon="1.88303">
        <ele>163</ele>
        <time>2018-08-16T18:36:37Z</time>
      </trkpt>
      <trkpt lat="43.93587" lon="1.88285">
        <ele>164</ele>
        <time>2018-08-16T18:36:43Z</time>
      </trkpt>
      <trkpt lat="43.93591" lon="1.88264">
        <ele>164</ele>
        <time>2018-08-16T18:36:49Z</time>
      </trkpt>
      <trkpt lat="43.93599" lon="1.88243">
        <ele>164</ele>
        <time>2018-08-16T18:36:55Z</time>
      </trkpt>
      <trkpt lat="43.93609" lon="1.88225">
        <ele>164</ele>
        <time>2018-08-16T18:37:01Z</time>
      </trkpt>
      <trkpt lat="43.93617" lon="1.88212">
        <ele>164</ele>
        <time>2018-08-16T18:37:07Z</time>
      </trkpt>
      <trkpt lat="43.93624" lon="1.88199">
        <ele>165</ele>
        <time>2018-08-16T18:37:13Z</time>
      </trkpt>
      <trkpt lat="43.9363" lon="1.88189">
        <ele>168</ele>
        <time>2018-08-16T18:37:19Z</time>
      </trkpt>
      <trkpt lat="43.9363" lon="1.88184">
        <ele>172</ele>
        <time>2018-08-16T18:37:27Z</time>
      </trkpt>
      <trkpt lat="43.93629" lon="1.88182">
        <ele>175</ele>
        <time>2018-08-16T18:37:38Z</time>
      </trkpt>
      <trkpt lat="43.93631" lon="1.88182">
        <ele>178</ele>
        <time>2018-08-16T18:37:51Z</time>
      </trkpt>
      <trkpt lat="43.93632" lon="1.88181">
        <ele>178</ele>
        <time>2018-08-16T18:37:59Z</time>
      </trkpt>
      <trkpt lat="43.93631" lon="1.88181">
        <ele>182</ele>
        <time>2018-08-16T18:38:19Z</time>
      </trkpt>
      <trkpt lat="43.93629" lon="1.88182">
        <ele>185</ele>
        <time>2018-08-16T18:38:27Z</time>
      </trkpt>
      <trkpt lat="43.93628" lon="1.88182">
        <ele>186</ele>
        <time>2018-08-16T18:38:52Z</time>
      </trkpt>
      <trkpt lat="43.93629" lon="1.88184">
        <ele>186</ele>
        <time>2018-08-16T18:39:17Z</time>
      </trkpt>
      <trkpt lat="43.93628" lon="1.88185">
        <ele>186</ele>
        <time>2018-08-16T18:39:34Z</time>
      </trkpt>
      <trkpt lat="43.93629" lon="1.88185">
        <ele>186</ele>
        <time>2018-08-16T18:39:52Z</time>
      </trkpt>
      <trkpt lat="43.93628" lon="1.88185">
        <ele>186</ele>
        <time>2018-08-16T18:40:04Z</time>
      </trkpt>
      <trkpt lat="43.93631" lon="1.88184">
        <ele>186</ele>
        <time>2018-08-16T18:40:14Z</time>
      </trkpt>
      <trkpt lat="43.93633" lon="1.88179">
        <ele>183</ele>
        <time>2018-08-16T18:40:20Z</time>
      </trkpt>
      <trkpt lat="43.93625" lon="1.88163">
        <ele>183</ele>
        <time>2018-08-16T18:40:26Z</time>
      </trkpt>
      <trkpt lat="43.93611" lon="1.88125">
        <ele>183</ele>
        <time>2018-08-16T18:40:32Z</time>
      </trkpt>
      <trkpt lat="43.93565" lon="1.88075">
        <ele>182</ele>
        <time>2018-08-16T18:40:38Z</time>
      </trkpt>
      <trkpt lat="43.93539" lon="1.88037">
        <ele>176</ele>
        <time>2018-08-16T18:40:44Z</time>
      </trkpt>
      <trkpt lat="43.93544" lon="1.88008">
        <ele>168</ele>
        <time>2018-08-16T18:40:50Z</time>
      </trkpt>
      <trkpt lat="43.93553" lon="1.87984">
        <ele>162</ele>
        <time>2018-08-16T18:40:56Z</time>
      </trkpt>
      <trkpt lat="43.93565" lon="1.8795">
        <ele>156</ele>
        <time>2018-08-16T18:41:02Z</time>
      </trkpt>
      <trkpt lat="43.93576" lon="1.87918">
        <ele>152</ele>
        <time>2018-08-16T18:41:08Z</time>
      </trkpt>
      <trkpt lat="43.93583" lon="1.87891">
        <ele>152</ele>
        <time>2018-08-16T18:41:14Z</time>
      </trkpt>
      <trkpt lat="43.93591" lon="1.87868">
        <ele>152</ele>
        <time>2018-08-16T18:41:20Z</time>
      </trkpt>
      <trkpt lat="43.93598" lon="1.87845">
        <ele>152</ele>
        <time>2018-08-16T18:41:26Z</time>
      </trkpt>
      <trkpt lat="43.93607" lon="1.87821">
        <ele>152</ele>
        <time>2018-08-16T18:41:32Z</time>
      </trkpt>
      <trkpt lat="43.93614" lon="1.87796">
        <ele>152</ele>
        <time>2018-08-16T18:41:38Z</time>
      </trkpt>
      <trkpt lat="43.93622" lon="1.87771">
        <ele>152</ele>
        <time>2018-08-16T18:41:44Z</time>
      </trkpt>
      <trkpt lat="43.9363" lon="1.87748">
        <ele>153</ele>
        <time>2018-08-16T18:41:50Z</time>
      </trkpt>
      <trkpt lat="43.93633" lon="1.87739">
        <ele>160</ele>
        <time>2018-08-16T18:42:02Z</time>
      </trkpt>
      <trkpt lat="43.93631" lon="1.87738">
        <ele>166</ele>
        <time>2018-08-16T18:42:13Z</time>
      </trkpt>
      <trkpt lat="43.93629" lon="1.87736">
        <ele>170</ele>
        <time>2018-08-16T18:42:19Z</time>
      </trkpt>
      <trkpt lat="43.93631" lon="1.87735">
        <ele>171</ele>
        <time>2018-08-16T18:42:35Z</time>
      </trkpt>
      <trkpt lat="43.93634" lon="1.87734">
        <ele>169</ele>
        <time>2018-08-16T18:42:41Z</time>
      </trkpt>
      <trkpt lat="43.93635" lon="1.87734">
        <ele>169</ele>
        <time>2018-08-16T18:42:54Z</time>
      </trkpt>
      <trkpt lat="43.93638" lon="1.87735">
        <ele>168</ele>
        <time>2018-08-16T18:43:00Z</time>
      </trkpt>
      <trkpt lat="43.93638" lon="1.87734">
        <ele>162</ele>
        <time>2018-08-16T18:43:07Z</time>
      </trkpt>
      <trkpt lat="43.93638" lon="1.87732">
        <ele>161</ele>
        <time>2018-08-16T18:43:13Z</time>
      </trkpt>
      <trkpt lat="43.93637" lon="1.87734">
        <ele>159</ele>
        <time>2018-08-16T18:43:29Z</time>
      </trkpt>
      <trkpt lat="43.93636" lon="1.87735">
        <ele>159</ele>
        <time>2018-08-16T18:43:44Z</time>
      </trkpt>
      <trkpt lat="43.93636" lon="1.87733">
        <ele>158</ele>
        <time>2018-08-16T18:43:59Z</time>
      </trkpt>
      <trkpt lat="43.93636" lon="1.87732">
        <ele>157</ele>
        <time>2018-08-16T18:44:07Z</time>
      </trkpt>
      <trkpt lat="43.93636" lon="1.8773">
        <ele>157</ele>
        <time>2018-08-16T18:44:13Z</time>
      </trkpt>
      <trkpt lat="43.93635" lon="1.87729">
        <ele>157</ele>
        <time>2018-08-16T18:44:20Z</time>
      </trkpt>
      <trkpt lat="43.93636" lon="1.87731">
        <ele>159</ele>
        <time>2018-08-16T18:44:52Z</time>
      </trkpt>
      <trkpt lat="43.93635" lon="1.87732">
        <ele>160</ele>
        <time>2018-08-16T18:45:17Z</time>
      </trkpt>
      <trkpt lat="43.93634" lon="1.87731">
        <ele>160</ele>
        <time>2018-08-16T18:45:28Z</time>
      </trkpt>
      <trkpt lat="43.93633" lon="1.87729">
        <ele>160</ele>
        <time>2018-08-16T18:46:43Z</time>
      </trkpt>
      <trkpt lat="43.93632" lon="1.87726">
        <ele>160</ele>
        <time>2018-08-16T18:46:54Z</time>
      </trkpt>
      <trkpt lat="43.93631" lon="1.87724">
        <ele>160</ele>
        <time>2018-08-16T18:47:05Z</time>
      </trkpt>
      <trkpt lat="43.9363" lon="1.87725">
        <ele>160</ele>
        <time>2018-08-16T18:47:16Z</time>
      </trkpt>
      <trkpt lat="43.93631" lon="1.87726">
        <ele>160</ele>
        <time>2018-08-16T18:47:22Z</time>
      </trkpt>
      <trkpt lat="43.93633" lon="1.87729">
        <ele>160</ele>
        <time>2018-08-16T18:47:31Z</time>
      </trkpt>
      <trkpt lat="43.93634" lon="1.87731">
        <ele>160</ele>
        <time>2018-08-16T18:47:38Z</time>
      </trkpt>
      <trkpt lat="43.93632" lon="1.87724">
        <ele>160</ele>
        <time>2018-08-16T18:47:45Z</time>
      </trkpt>
      <trkpt lat="43.93626" lon="1.87715">
        <ele>160</ele>
        <time>2018-08-16T18:47:51Z</time>
      </trkpt>
      <trkpt lat="43.93619" lon="1.87704">
        <ele>161</ele>
        <time>2018-08-16T18:47:57Z</time>
      </trkpt>
      <trkpt lat="43.93613" lon="1.87694">
        <ele>162</ele>
        <time>2018-08-16T18:48:03Z</time>
      </trkpt>
      <trkpt lat="43.93605" lon="1.87684">
        <ele>163</ele>
        <time>2018-08-16T18:48:09Z</time>
      </trkpt>
      <trkpt lat="43.93599" lon="1.87675">
        <ele>163</ele>
        <time>2018-08-16T18:48:15Z</time>
      </trkpt>
      <trkpt lat="43.93592" lon="1.87666">
        <ele>164</ele>
        <time>2018-08-16T18:48:21Z</time>
      </trkpt>
      <trkpt lat="43.93585" lon="1.87657">
        <ele>164</ele>
        <time>2018-08-16T18:48:27Z</time>
      </trkpt>
      <trkpt lat="43.93579" lon="1.87649">
        <ele>165</ele>
        <time>2018-08-16T18:48:33Z</time>
      </trkpt>
      <trkpt lat="43.93577" lon="1.87637">
        <ele>166</ele>
        <time>2018-08-16T18:48:39Z</time>
      </trkpt>
      <trkpt lat="43.9358" lon="1.87623">
        <ele>166</ele>
        <time>2018-08-16T18:48:45Z</time>
      </trkpt>
      <trkpt lat="43.93582" lon="1.87607">
        <ele>166</ele>
        <time>2018-08-16T18:48:51Z</time>
      </trkpt>
      <trkpt lat="43.93581" lon="1.87595">
        <ele>166</ele>
        <time>2018-08-16T18:48:57Z</time>
      </trkpt>
      <trkpt lat="43.93585" lon="1.87578">
        <ele>166</ele>
        <time>2018-08-16T18:49:03Z</time>
      </trkpt>
      <trkpt lat="43.93589" lon="1.87561">
        <ele>167</ele>
        <time>2018-08-16T18:49:09Z</time>
      </trkpt>
      <trkpt lat="43.93596" lon="1.87539">
        <ele>168</ele>
        <time>2018-08-16T18:49:15Z</time>
      </trkpt>
      <trkpt lat="43.93601" lon="1.87518">
        <ele>169</ele>
        <time>2018-08-16T18:49:21Z</time>
      </trkpt>
      <trkpt lat="43.93606" lon="1.87496">
        <ele>171</ele>
        <time>2018-08-16T18:49:27Z</time>
      </trkpt>
      <trkpt lat="43.93611" lon="1.87474">
        <ele>171</ele>
        <time>2018-08-16T18:49:33Z</time>
      </trkpt>
      <trkpt lat="43.93617" lon="1.87454">
        <ele>171</ele>
        <time>2018-08-16T18:49:39Z</time>
      </trkpt>
      <trkpt lat="43.93622" lon="1.87434">
        <ele>171</ele>
        <time>2018-08-16T18:49:45Z</time>
      </trkpt>
      <trkpt lat="43.93627" lon="1.87414">
        <ele>172</ele>
        <time>2018-08-16T18:49:51Z</time>
      </trkpt>
      <trkpt lat="43.93633" lon="1.87394">
        <ele>172</ele>
        <time>2018-08-16T18:49:57Z</time>
      </trkpt>
      <trkpt lat="43.93638" lon="1.87374">
        <ele>172</ele>
        <time>2018-08-16T18:50:03Z</time>
      </trkpt>
      <trkpt lat="43.93644" lon="1.87354">
        <ele>172</ele>
        <time>2018-08-16T18:50:09Z</time>
      </trkpt>
      <trkpt lat="43.93648" lon="1.87334">
        <ele>172</ele>
        <time>2018-08-16T18:50:15Z</time>
      </trkpt>
      <trkpt lat="43.93652" lon="1.87316">
        <ele>173</ele>
        <time>2018-08-16T18:50:21Z</time>
      </trkpt>
      <trkpt lat="43.93658" lon="1.87302">
        <ele>175</ele>
        <time>2018-08-16T18:50:27Z</time>
      </trkpt>
      <trkpt lat="43.93689" lon="1.87304">
        <ele>175</ele>
        <time>2018-08-16T18:50:33Z</time>
      </trkpt>
      <trkpt lat="43.93732" lon="1.87315">
        <ele>171</ele>
        <time>2018-08-16T18:50:39Z</time>
      </trkpt>
      <trkpt lat="43.93769" lon="1.87328">
        <ele>167</ele>
        <time>2018-08-16T18:50:45Z</time>
      </trkpt>
      <trkpt lat="43.93795" lon="1.87338">
        <ele>167</ele>
        <time>2018-08-16T18:50:51Z</time>
      </trkpt>
      <trkpt lat="43.93813" lon="1.87358">
        <ele>167</ele>
        <time>2018-08-16T18:50:57Z</time>
      </trkpt>
      <trkpt lat="43.93821" lon="1.87381">
        <ele>167</ele>
        <time>2018-08-16T18:51:03Z</time>
      </trkpt>
      <trkpt lat="43.93826" lon="1.87405">
        <ele>167</ele>
        <time>2018-08-16T18:51:09Z</time>
      </trkpt>
      <trkpt lat="43.93829" lon="1.87424">
        <ele>168</ele>
        <time>2018-08-16T18:51:15Z</time>
      </trkpt>
      <trkpt lat="43.93827" lon="1.87443">
        <ele>169</ele>
        <time>2018-08-16T18:51:21Z</time>
      </trkpt>
      <trkpt lat="43.93826" lon="1.87467">
        <ele>170</ele>
        <time>2018-08-16T18:51:27Z</time>
      </trkpt>
      <trkpt lat="43.93825" lon="1.87487">
        <ele>170</ele>
        <time>2018-08-16T18:51:33Z</time>
      </trkpt>
      <trkpt lat="43.93824" lon="1.87506">
        <ele>171</ele>
        <time>2018-08-16T18:51:39Z</time>
      </trkpt>
      <trkpt lat="43.93824" lon="1.87525">
        <ele>172</ele>
        <time>2018-08-16T18:51:45Z</time>
      </trkpt>
      <trkpt lat="43.93824" lon="1.8754">
        <ele>172</ele>
        <time>2018-08-16T18:51:51Z</time>
      </trkpt>
      <trkpt lat="43.93826" lon="1.87554">
        <ele>174</ele>
        <time>2018-08-16T18:51:57Z</time>
      </trkpt>
      <trkpt lat="43.93835" lon="1.87566">
        <ele>174</ele>
        <time>2018-08-16T18:52:03Z</time>
      </trkpt>
      <trkpt lat="43.93844" lon="1.87575">
        <ele>174</ele>
        <time>2018-08-16T18:52:09Z</time>
      </trkpt>
      <trkpt lat="43.93852" lon="1.87581">
        <ele>174</ele>
        <time>2018-08-16T18:52:15Z</time>
      </trkpt>
      <trkpt lat="43.93858" lon="1.8759">
        <ele>174</ele>
        <time>2018-08-16T18:52:21Z</time>
      </trkpt>
      <trkpt lat="43.9386" lon="1.87602">
        <ele>175</ele>
        <time>2018-08-16T18:52:27Z</time>
      </trkpt>
      <trkpt lat="43.93863" lon="1.87616">
        <ele>176</ele>
        <time>2018-08-16T18:52:33Z</time>
      </trkpt>
      <trkpt lat="43.93869" lon="1.87626">
        <ele>176</ele>
        <time>2018-08-16T18:52:39Z</time>
      </trkpt>
      <trkpt lat="43.93878" lon="1.87635">
        <ele>177</ele>
        <time>2018-08-16T18:52:45Z</time>
      </trkpt>
      <trkpt lat="43.93887" lon="1.87644">
        <ele>178</ele>
        <time>2018-08-16T18:52:51Z</time>
      </trkpt>
      <trkpt lat="43.93897" lon="1.87654">
        <ele>179</ele>
        <time>2018-08-16T18:52:57Z</time>
      </trkpt>
      <trkpt lat="43.93907" lon="1.87663">
        <ele>179</ele>
        <time>2018-08-16T18:53:03Z</time>
      </trkpt>
      <trkpt lat="43.93915" lon="1.87673">
        <ele>179</ele>
        <time>2018-08-16T18:53:09Z</time>
      </trkpt>
      <trkpt lat="43.93923" lon="1.87681">
        <ele>179</ele>
        <time>2018-08-16T18:53:15Z</time>
      </trkpt>
      <trkpt lat="43.93931" lon="1.87688">
        <ele>179</ele>
        <time>2018-08-16T18:53:21Z</time>
      </trkpt>
      <trkpt lat="43.93939" lon="1.87699">
        <ele>180</ele>
        <time>2018-08-16T18:53:27Z</time>
      </trkpt>
      <trkpt lat="43.93945" lon="1.87708">
        <ele>181</ele>
        <time>2018-08-16T18:53:34Z</time>
      </trkpt>
      <trkpt lat="43.93952" lon="1.87714">
        <ele>183</ele>
        <time>2018-08-16T18:53:41Z</time>
      </trkpt>
      <trkpt lat="43.93957" lon="1.87704">
        <ele>185</ele>
        <time>2018-08-16T18:53:47Z</time>
      </trkpt>
      <trkpt lat="43.93961" lon="1.87694">
        <ele>188</ele>
        <time>2018-08-16T18:53:53Z</time>
      </trkpt>
      <trkpt lat="43.93967" lon="1.87679">
        <ele>189</ele>
        <time>2018-08-16T18:53:59Z</time>
      </trkpt>
      <trkpt lat="43.93975" lon="1.87662">
        <ele>189</ele>
        <time>2018-08-16T18:54:05Z</time>
      </trkpt>
      <trkpt lat="43.93982" lon="1.87643">
        <ele>189</ele>
        <time>2018-08-16T18:54:11Z</time>
      </trkpt>
      <trkpt lat="43.93991" lon="1.87623">
        <ele>189</ele>
        <time>2018-08-16T18:54:17Z</time>
      </trkpt>
      <trkpt lat="43.94" lon="1.87601">
        <ele>189</ele>
        <time>2018-08-16T18:54:23Z</time>
      </trkpt>
      <trkpt lat="43.9401" lon="1.8758">
        <ele>189</ele>
        <time>2018-08-16T18:54:29Z</time>
      </trkpt>
      <trkpt lat="43.94019" lon="1.87557">
        <ele>189</ele>
        <time>2018-08-16T18:54:35Z</time>
      </trkpt>
      <trkpt lat="43.94029" lon="1.87535">
        <ele>189</ele>
        <time>2018-08-16T18:54:41Z</time>
      </trkpt>
      <trkpt lat="43.9404" lon="1.8751">
        <ele>189</ele>
        <time>2018-08-16T18:54:47Z</time>
      </trkpt>
      <trkpt lat="43.94051" lon="1.87484">
        <ele>189</ele>
        <time>2018-08-16T18:54:53Z</time>
      </trkpt>
      <trkpt lat="43.94062" lon="1.87458">
        <ele>190</ele>
        <time>2018-08-16T18:54:59Z</time>
      </trkpt>
      <trkpt lat="43.94072" lon="1.87432">
        <ele>191</ele>
        <time>2018-08-16T18:55:05Z</time>
      </trkpt>
      <trkpt lat="43.94082" lon="1.87404">
        <ele>192</ele>
        <time>2018-08-16T18:55:11Z</time>
      </trkpt>
      <trkpt lat="43.94091" lon="1.87378">
        <ele>193</ele>
        <time>2018-08-16T18:55:17Z</time>
      </trkpt>
      <trkpt lat="43.94098" lon="1.87351">
        <ele>194</ele>
        <time>2018-08-16T18:55:23Z</time>
      </trkpt>
      <trkpt lat="43.94101" lon="1.87321">
        <ele>194</ele>
        <time>2018-08-16T18:55:29Z</time>
      </trkpt>
      <trkpt lat="43.94101" lon="1.8729">
        <ele>194</ele>
        <time>2018-08-16T18:55:35Z</time>
      </trkpt>
      <trkpt lat="43.941" lon="1.8726">
        <ele>195</ele>
        <time>2018-08-16T18:55:41Z</time>
      </trkpt>
      <trkpt lat="43.94099" lon="1.87231">
        <ele>196</ele>
        <time>2018-08-16T18:55:47Z</time>
      </trkpt>
      <trkpt lat="43.94097" lon="1.87203">
        <ele>198</ele>
        <time>2018-08-16T18:55:53Z</time>
      </trkpt>
      <trkpt lat="43.94096" lon="1.87176">
        <ele>199</ele>
        <time>2018-08-16T18:55:59Z</time>
      </trkpt>
      <trkpt lat="43.94094" lon="1.87147">
        <ele>200</ele>
        <time>2018-08-16T18:56:05Z</time>
      </trkpt>
      <trkpt lat="43.94093" lon="1.87119">
        <ele>201</ele>
        <time>2018-08-16T18:56:11Z</time>
      </trkpt>
      <trkpt lat="43.94095" lon="1.87088">
        <ele>201</ele>
        <time>2018-08-16T18:56:17Z</time>
      </trkpt>
      <trkpt lat="43.94099" lon="1.87056">
        <ele>201</ele>
        <time>2018-08-16T18:56:23Z</time>
      </trkpt>
      <trkpt lat="43.94103" lon="1.87025">
        <ele>201</ele>
        <time>2018-08-16T18:56:29Z</time>
      </trkpt>
      <trkpt lat="43.94106" lon="1.86995">
        <ele>201</ele>
        <time>2018-08-16T18:56:35Z</time>
      </trkpt>
      <trkpt lat="43.9411" lon="1.86967">
        <ele>202</ele>
        <time>2018-08-16T18:56:41Z</time>
      </trkpt>
      <trkpt lat="43.94116" lon="1.86939">
        <ele>202</ele>
        <time>2018-08-16T18:56:47Z</time>
      </trkpt>
      <trkpt lat="43.94123" lon="1.86913">
        <ele>203</ele>
        <time>2018-08-16T18:56:53Z</time>
      </trkpt>
      <trkpt lat="43.94131" lon="1.86885">
        <ele>204</ele>
        <time>2018-08-16T18:56:59Z</time>
      </trkpt>
      <trkpt lat="43.94139" lon="1.86857">
        <ele>204</ele>
        <time>2018-08-16T18:57:05Z</time>
      </trkpt>
      <trkpt lat="43.94147" lon="1.8683">
        <ele>205</ele>
        <time>2018-08-16T18:57:11Z</time>
      </trkpt>
      <trkpt lat="43.9415" lon="1.86806">
        <ele>206</ele>
        <time>2018-08-16T18:57:17Z</time>
      </trkpt>
      <trkpt lat="43.94151" lon="1.86784">
        <ele>208</ele>
        <time>2018-08-16T18:57:23Z</time>
      </trkpt>
      <trkpt lat="43.94151" lon="1.86765">
        <ele>209</ele>
        <time>2018-08-16T18:57:29Z</time>
      </trkpt>
      <trkpt lat="43.9415" lon="1.86748">
        <ele>212</ele>
        <time>2018-08-16T18:57:35Z</time>
      </trkpt>
      <trkpt lat="43.94149" lon="1.8673">
        <ele>213</ele>
        <time>2018-08-16T18:57:41Z</time>
      </trkpt>
      <trkpt lat="43.94149" lon="1.86711">
        <ele>214</ele>
        <time>2018-08-16T18:57:47Z</time>
      </trkpt>
      <trkpt lat="43.94149" lon="1.86696">
        <ele>214</ele>
        <time>2018-08-16T18:57:53Z</time>
      </trkpt>
      <trkpt lat="43.94154" lon="1.86686">
        <ele>215</ele>
        <time>2018-08-16T18:57:59Z</time>
      </trkpt>
      <trkpt lat="43.94167" lon="1.86683">
        <ele>215</ele>
        <time>2018-08-16T18:58:05Z</time>
      </trkpt>
      <trkpt lat="43.94184" lon="1.86654">
        <ele>217</ele>
        <time>2018-08-16T18:58:11Z</time>
      </trkpt>
      <trkpt lat="43.942" lon="1.86641">
        <ele>218</ele>
        <time>2018-08-16T18:58:17Z</time>
      </trkpt>
      <trkpt lat="43.9423" lon="1.86653">
        <ele>218</ele>
        <time>2018-08-16T18:58:23Z</time>
      </trkpt>
      <trkpt lat="43.94259" lon="1.86647">
        <ele>218</ele>
        <time>2018-08-16T18:58:29Z</time>
      </trkpt>
      <trkpt lat="43.94287" lon="1.86632">
        <ele>215</ele>
        <time>2018-08-16T18:58:35Z</time>
      </trkpt>
      <trkpt lat="43.94292" lon="1.86633">
        <ele>213</ele>
        <time>2018-08-16T18:58:42Z</time>
      </trkpt>
      <trkpt lat="43.94293" lon="1.86636">
        <ele>217</ele>
        <time>2018-08-16T18:58:48Z</time>
      </trkpt>
      <trkpt lat="43.943" lon="1.8664">
        <ele>221</ele>
        <time>2018-08-16T18:58:54Z</time>
      </trkpt>
      <trkpt lat="43.94305" lon="1.86641">
        <ele>221</ele>
        <time>2018-08-16T18:59:00Z</time>
      </trkpt>
      <trkpt lat="43.94307" lon="1.86639">
        <ele>218</ele>
        <time>2018-08-16T18:59:07Z</time>
      </trkpt>
      <trkpt lat="43.94308" lon="1.86637">
        <ele>210</ele>
        <time>2018-08-16T18:59:15Z</time>
      </trkpt>
      <trkpt lat="43.94307" lon="1.86635">
        <ele>205</ele>
        <time>2018-08-16T18:59:25Z</time>
      </trkpt>
      <trkpt lat="43.94308" lon="1.8663">
        <ele>196</ele>
        <time>2018-08-16T18:59:34Z</time>
      </trkpt>
      <trkpt lat="43.94309" lon="1.86627">
        <ele>193</ele>
        <time>2018-08-16T18:59:41Z</time>
      </trkpt>
      <trkpt lat="43.94307" lon="1.86626">
        <ele>193</ele>
        <time>2018-08-16T18:59:48Z</time>
      </trkpt>
      <trkpt lat="43.94307" lon="1.86626">
        <ele>194</ele>
        <time>2018-08-16T19:00:01Z</time>
      </trkpt>
      <trkpt lat="43.94306" lon="1.86629">
        <ele>194</ele>
        <time>2018-08-16T19:00:08Z</time>
      </trkpt>
      <trkpt lat="43.94302" lon="1.86633">
        <ele>194</ele>
        <time>2018-08-16T19:00:18Z</time>
      </trkpt>
      <trkpt lat="43.94305" lon="1.8663">
        <ele>199</ele>
        <time>2018-08-16T19:00:24Z</time>
      </trkpt>
      <trkpt lat="43.94308" lon="1.86624">
        <ele>203</ele>
        <time>2018-08-16T19:00:30Z</time>
      </trkpt>
      <trkpt lat="43.94317" lon="1.86618">
        <ele>203</ele>
        <time>2018-08-16T19:00:36Z</time>
      </trkpt>
      <trkpt lat="43.94324" lon="1.86614">
        <ele>203</ele>
        <time>2018-08-16T19:00:45Z</time>
      </trkpt>
      <trkpt lat="43.94324" lon="1.86615">
        <ele>203</ele>
        <time>2018-08-16T19:00:58Z</time>
      </trkpt>
      <trkpt lat="43.94325" lon="1.86615">
        <ele>203</ele>
        <time>2018-08-16T19:01:06Z</time>
      </trkpt>
      <trkpt lat="43.94329" lon="1.86609">
        <ele>203</ele>
        <time>2018-08-16T19:01:12Z</time>
      </trkpt>
      <trkpt lat="43.94331" lon="1.866">
        <ele>203</ele>
        <time>2018-08-16T19:01:19Z</time>
      </trkpt>
      <trkpt lat="43.94331" lon="1.86593">
        <ele>205</ele>
        <time>2018-08-16T19:01:25Z</time>
      </trkpt>
      <trkpt lat="43.94334" lon="1.86587">
        <ele>210</ele>
        <time>2018-08-16T19:01:32Z</time>
      </trkpt>
      <trkpt lat="43.94338" lon="1.86578">
        <ele>213</ele>
        <time>2018-08-16T19:01:38Z</time>
      </trkpt>
      <trkpt lat="43.94348" lon="1.86571">
        <ele>214</ele>
        <time>2018-08-16T19:01:44Z</time>
      </trkpt>
      <trkpt lat="43.94361" lon="1.8657">
        <ele>214</ele>
        <time>2018-08-16T19:01:50Z</time>
      </trkpt>
      <trkpt lat="43.94385" lon="1.86571">
        <ele>210</ele>
        <time>2018-08-16T19:01:56Z</time>
      </trkpt>
      <trkpt lat="43.944" lon="1.8657">
        <ele>209</ele>
        <time>2018-08-16T19:02:02Z</time>
      </trkpt>
      <trkpt lat="43.94408" lon="1.86574">
        <ele>206</ele>
        <time>2018-08-16T19:02:08Z</time>
      </trkpt>
      <trkpt lat="43.94415" lon="1.86565">
        <ele>203</ele>
        <time>2018-08-16T19:02:15Z</time>
      </trkpt>
      <trkpt lat="43.94421" lon="1.86556">
        <ele>203</ele>
        <time>2018-08-16T19:02:21Z</time>
      </trkpt>
      <trkpt lat="43.94429" lon="1.86545">
        <ele>203</ele>
        <time>2018-08-16T19:02:27Z</time>
      </trkpt>
      <trkpt lat="43.94438" lon="1.86532">
        <ele>203</ele>
        <time>2018-08-16T19:02:33Z</time>
      </trkpt>
      <trkpt lat="43.9445" lon="1.86512">
        <ele>204</ele>
        <time>2018-08-16T19:02:39Z</time>
      </trkpt>
      <trkpt lat="43.9446" lon="1.86496">
        <ele>206</ele>
        <time>2018-08-16T19:02:45Z</time>
      </trkpt>
      <trkpt lat="43.9447" lon="1.86477">
        <ele>208</ele>
        <time>2018-08-16T19:02:51Z</time>
      </trkpt>
      <trkpt lat="43.94475" lon="1.86464">
        <ele>209</ele>
        <time>2018-08-16T19:02:57Z</time>
      </trkpt>
      <trkpt lat="43.9448" lon="1.86454">
        <ele>209</ele>
        <time>2018-08-16T19:03:03Z</time>
      </trkpt>
      <trkpt lat="43.94484" lon="1.86447">
        <ele>209</ele>
        <time>2018-08-16T19:03:09Z</time>
      </trkpt>
      <trkpt lat="43.94491" lon="1.86439">
        <ele>209</ele>
        <time>2018-08-16T19:03:16Z</time>
      </trkpt>
      <trkpt lat="43.94496" lon="1.86432">
        <ele>209</ele>
        <time>2018-08-16T19:03:22Z</time>
      </trkpt>
      <trkpt lat="43.945" lon="1.86425">
        <ele>209</ele>
        <time>2018-08-16T19:03:28Z</time>
      </trkpt>
      <trkpt lat="43.94505" lon="1.86416">
        <ele>209</ele>
        <time>2018-08-16T19:03:34Z</time>
      </trkpt>
      <trkpt lat="43.9451" lon="1.86409">
        <ele>209</ele>
        <time>2018-08-16T19:03:40Z</time>
      </trkpt>
      <trkpt lat="43.94513" lon="1.86401">
        <ele>209</ele>
        <time>2018-08-16T19:03:46Z</time>
      </trkpt>
      <trkpt lat="43.94518" lon="1.86396">
        <ele>212</ele>
        <time>2018-08-16T19:04:04Z</time>
      </trkpt>
      <trkpt lat="43.9452" lon="1.86399">
        <ele>212</ele>
        <time>2018-08-16T19:04:10Z</time>
      </trkpt>
      <trkpt lat="43.94518" lon="1.864">
        <ele>211</ele>
        <time>2018-08-16T19:04:26Z</time>
      </trkpt>
      <trkpt lat="43.94518" lon="1.86398">
        <ele>211</ele>
        <time>2018-08-16T19:04:44Z</time>
      </trkpt>
      <trkpt lat="43.9452" lon="1.86396">
        <ele>211</ele>
        <time>2018-08-16T19:04:52Z</time>
      </trkpt>
      <trkpt lat="43.94519" lon="1.86393">
        <ele>211</ele>
        <time>2018-08-16T19:05:00Z</time>
      </trkpt>
      <trkpt lat="43.94521" lon="1.86392">
        <ele>212</ele>
        <time>2018-08-16T19:05:07Z</time>
      </trkpt>
      <trkpt lat="43.94522" lon="1.86391">
        <ele>212</ele>
        <time>2018-08-16T19:05:21Z</time>
      </trkpt>
      <trkpt lat="43.94522" lon="1.86391">
        <ele>209</ele>
        <time>2018-08-16T19:05:49Z</time>
      </trkpt>
      <trkpt lat="43.94521" lon="1.86391">
        <ele>209</ele>
        <time>2018-08-16T19:05:58Z</time>
      </trkpt>
      <trkpt lat="43.94518" lon="1.86391">
        <ele>209</ele>
        <time>2018-08-16T19:06:07Z</time>
      </trkpt>
      <trkpt lat="43.94519" lon="1.86393">
        <ele>208</ele>
        <time>2018-08-16T19:06:42Z</time>
      </trkpt>
      <trkpt lat="43.9452" lon="1.86393">
        <ele>208</ele>
        <time>2018-08-16T19:06:55Z</time>
      </trkpt>
      <trkpt lat="43.94521" lon="1.86395">
        <ele>208</ele>
        <time>2018-08-16T19:07:10Z</time>
      </trkpt>
      <trkpt lat="43.94521" lon="1.86392">
        <ele>204</ele>
        <time>2018-08-16T19:07:27Z</time>
      </trkpt>
      <trkpt lat="43.94518" lon="1.86393">
        <ele>204</ele>
        <time>2018-08-16T19:07:34Z</time>
      </trkpt>
      <trkpt lat="43.94516" lon="1.86395">
        <ele>205</ele>
        <time>2018-08-16T19:07:41Z</time>
      </trkpt>
      <trkpt lat="43.94514" lon="1.86394">
        <ele>209</ele>
        <time>2018-08-16T19:07:50Z</time>
      </trkpt>
      <trkpt lat="43.94516" lon="1.86392">
        <ele>209</ele>
        <time>2018-08-16T19:08:00Z</time>
      </trkpt>
      <trkpt lat="43.94519" lon="1.86393">
        <ele>210</ele>
        <time>2018-08-16T19:08:23Z</time>
      </trkpt>
      <trkpt lat="43.94519" lon="1.86396">
        <ele>210</ele>
        <time>2018-08-16T19:08:34Z</time>
      </trkpt>
      <trkpt lat="43.94518" lon="1.86397">
        <ele>210</ele>
        <time>2018-08-16T19:08:40Z</time>
      </trkpt>
      <trkpt lat="43.94516" lon="1.86399">
        <ele>210</ele>
        <time>2018-08-16T19:08:51Z</time>
      </trkpt>
      <trkpt lat="43.94506" lon="1.86418">
        <ele>208</ele>
        <time>2018-08-16T19:08:57Z</time>
      </trkpt>
      <trkpt lat="43.94492" lon="1.86441">
        <ele>208</ele>
        <time>2018-08-16T19:09:03Z</time>
      </trkpt>
      <trkpt lat="43.94479" lon="1.86466">
        <ele>207</ele>
        <time>2018-08-16T19:09:09Z</time>
      </trkpt>
      <trkpt lat="43.94463" lon="1.86498">
        <ele>205</ele>
        <time>2018-08-16T19:09:15Z</time>
      </trkpt>
      <trkpt lat="43.94448" lon="1.86532">
        <ele>202</ele>
        <time>2018-08-16T19:09:21Z</time>
      </trkpt>
      <trkpt lat="43.94433" lon="1.86562">
        <ele>200</ele>
        <time>2018-08-16T19:09:27Z</time>
      </trkpt>
      <trkpt lat="43.94417" lon="1.86579">
        <ele>199</ele>
        <time>2018-08-16T19:09:33Z</time>
      </trkpt>
      <trkpt lat="43.94415" lon="1.86596">
        <ele>199</ele>
        <time>2018-08-16T19:09:39Z</time>
      </trkpt>
      <trkpt lat="43.94424" lon="1.86605">
        <ele>199</ele>
        <time>2018-08-16T19:09:47Z</time>
      </trkpt>
      <trkpt lat="43.94432" lon="1.86611">
        <ele>199</ele>
        <time>2018-08-16T19:09:53Z</time>
      </trkpt>
      <trkpt lat="43.94438" lon="1.86617">
        <ele>199</ele>
        <time>2018-08-16T19:09:59Z</time>
      </trkpt>
      <trkpt lat="43.94446" lon="1.86625">
        <ele>199</ele>
        <time>2018-08-16T19:10:05Z</time>
      </trkpt>
      <trkpt lat="43.94455" lon="1.8663">
        <ele>199</ele>
        <time>2018-08-16T19:10:12Z</time>
      </trkpt>
      <trkpt lat="43.94465" lon="1.86621">
        <ele>199</ele>
        <time>2018-08-16T19:10:19Z</time>
      </trkpt>
      <trkpt lat="43.94473" lon="1.86628">
        <ele>201</ele>
        <time>2018-08-16T19:10:25Z</time>
      </trkpt>
      <trkpt lat="43.94481" lon="1.86636">
        <ele>202</ele>
        <time>2018-08-16T19:10:31Z</time>
      </trkpt>
      <trkpt lat="43.94489" lon="1.86644">
        <ele>203</ele>
        <time>2018-08-16T19:10:37Z</time>
      </trkpt>
      <trkpt lat="43.945" lon="1.86654">
        <ele>203</ele>
        <time>2018-08-16T19:10:44Z</time>
      </trkpt>
      <trkpt lat="43.94507" lon="1.86664">
        <ele>203</ele>
        <time>2018-08-16T19:10:50Z</time>
      </trkpt>
      <trkpt lat="43.94501" lon="1.86684">
        <ele>203</ele>
        <time>2018-08-16T19:10:56Z</time>
      </trkpt>
      <trkpt lat="43.94493" lon="1.86705">
        <ele>204</ele>
        <time>2018-08-16T19:11:02Z</time>
      </trkpt>
      <trkpt lat="43.94484" lon="1.86727">
        <ele>206</ele>
        <time>2018-08-16T19:11:09Z</time>
      </trkpt>
      <trkpt lat="43.94477" lon="1.86747">
        <ele>207</ele>
        <time>2018-08-16T19:11:16Z</time>
      </trkpt>
      <trkpt lat="43.94482" lon="1.86766">
        <ele>207</ele>
        <time>2018-08-16T19:11:22Z</time>
      </trkpt>
      <trkpt lat="43.94523" lon="1.86791">
        <ele>207</ele>
        <time>2018-08-16T19:11:28Z</time>
      </trkpt>
      <trkpt lat="43.94553" lon="1.8682">
        <ele>200</ele>
        <time>2018-08-16T19:11:35Z</time>
      </trkpt>
      <trkpt lat="43.94538" lon="1.86851">
        <ele>194</ele>
        <time>2018-08-16T19:11:41Z</time>
      </trkpt>
      <trkpt lat="43.94526" lon="1.86887">
        <ele>193</ele>
        <time>2018-08-16T19:11:48Z</time>
      </trkpt>
      <trkpt lat="43.9456" lon="1.86918">
        <ele>188</ele>
        <time>2018-08-16T19:11:55Z</time>
      </trkpt>
      <trkpt lat="43.94591" lon="1.8693">
        <ele>186</ele>
        <time>2018-08-16T19:12:02Z</time>
      </trkpt>
      <trkpt lat="43.94609" lon="1.8693">
        <ele>186</ele>
        <time>2018-08-16T19:12:08Z</time>
      </trkpt>
      <trkpt lat="43.94634" lon="1.86941">
        <ele>186</ele>
        <time>2018-08-16T19:12:15Z</time>
      </trkpt>
      <trkpt lat="43.94651" lon="1.86934">
        <ele>187</ele>
        <time>2018-08-16T19:12:21Z</time>
      </trkpt>
      <trkpt lat="43.9466" lon="1.86924">
        <ele>193</ele>
        <time>2018-08-16T19:12:28Z</time>
      </trkpt>
      <trkpt lat="43.94668" lon="1.86916">
        <ele>199</ele>
        <time>2018-08-16T19:12:35Z</time>
      </trkpt>
      <trkpt lat="43.94676" lon="1.86907">
        <ele>200</ele>
        <time>2018-08-16T19:12:42Z</time>
      </trkpt>
      <trkpt lat="43.94684" lon="1.86901">
        <ele>201</ele>
        <time>2018-08-16T19:12:48Z</time>
      </trkpt>
      <trkpt lat="43.94692" lon="1.86894">
        <ele>203</ele>
        <time>2018-08-16T19:12:54Z</time>
      </trkpt>
      <trkpt lat="43.947" lon="1.86888">
        <ele>205</ele>
        <time>2018-08-16T19:13:00Z</time>
      </trkpt>
      <trkpt lat="43.94708" lon="1.86881">
        <ele>205</ele>
        <time>2018-08-16T19:13:07Z</time>
      </trkpt>
      <trkpt lat="43.94714" lon="1.86875">
        <ele>205</ele>
        <time>2018-08-16T19:13:13Z</time>
      </trkpt>
      <trkpt lat="43.94721" lon="1.8687">
        <ele>206</ele>
        <time>2018-08-16T19:13:19Z</time>
      </trkpt>
      <trkpt lat="43.94728" lon="1.86864">
        <ele>206</ele>
        <time>2018-08-16T19:13:25Z</time>
      </trkpt>
      <trkpt lat="43.94735" lon="1.86858">
        <ele>207</ele>
        <time>2018-08-16T19:13:31Z</time>
      </trkpt>
      <trkpt lat="43.94742" lon="1.86852">
        <ele>208</ele>
        <time>2018-08-16T19:13:38Z</time>
      </trkpt>
      <trkpt lat="43.9475" lon="1.86845">
        <ele>209</ele>
        <time>2018-08-16T19:13:45Z</time>
      </trkpt>
      <trkpt lat="43.94756" lon="1.86838">
        <ele>209</ele>
        <time>2018-08-16T19:13:51Z</time>
      </trkpt>
      <trkpt lat="43.94765" lon="1.86831">
        <ele>210</ele>
        <time>2018-08-16T19:13:58Z</time>
      </trkpt>
      <trkpt lat="43.94772" lon="1.86823">
        <ele>211</ele>
        <time>2018-08-16T19:14:05Z</time>
      </trkpt>
      <trkpt lat="43.9478" lon="1.86816">
        <ele>211</ele>
        <time>2018-08-16T19:14:11Z</time>
      </trkpt>
      <trkpt lat="43.94786" lon="1.86811">
        <ele>213</ele>
        <time>2018-08-16T19:14:17Z</time>
      </trkpt>
      <trkpt lat="43.94795" lon="1.86802">
        <ele>214</ele>
        <time>2018-08-16T19:14:24Z</time>
      </trkpt>
      <trkpt lat="43.94804" lon="1.86797">
        <ele>216</ele>
        <time>2018-08-16T19:14:31Z</time>
      </trkpt>
      <trkpt lat="43.94811" lon="1.86792">
        <ele>217</ele>
        <time>2018-08-16T19:14:37Z</time>
      </trkpt>
      <trkpt lat="43.9482" lon="1.86786">
        <ele>218</ele>
        <time>2018-08-16T19:14:45Z</time>
      </trkpt>
      <trkpt lat="43.94829" lon="1.86778">
        <ele>219</ele>
        <time>2018-08-16T19:14:52Z</time>
      </trkpt>
      <trkpt lat="43.94837" lon="1.86775">
        <ele>219</ele>
        <time>2018-08-16T19:14:58Z</time>
      </trkpt>
      <trkpt lat="43.94845" lon="1.86769">
        <ele>221</ele>
        <time>2018-08-16T19:15:05Z</time>
      </trkpt>
      <trkpt lat="43.94853" lon="1.86763">
        <ele>222</ele>
        <time>2018-08-16T19:15:11Z</time>
      </trkpt>
      <trkpt lat="43.94859" lon="1.86765">
        <ele>224</ele>
        <time>2018-08-16T19:15:18Z</time>
      </trkpt>
      <trkpt lat="43.94865" lon="1.86768">
        <ele>224</ele>
        <time>2018-08-16T19:15:24Z</time>
      </trkpt>
      <trkpt lat="43.94874" lon="1.86775">
        <ele>224</ele>
        <time>2018-08-16T19:15:30Z</time>
      </trkpt>
      <trkpt lat="43.94889" lon="1.86782">
        <ele>224</ele>
        <time>2018-08-16T19:15:36Z</time>
      </trkpt>
      <trkpt lat="43.94904" lon="1.86792">
        <ele>224</ele>
        <time>2018-08-16T19:15:43Z</time>
      </trkpt>
      <trkpt lat="43.94918" lon="1.86793">
        <ele>224</ele>
        <time>2018-08-16T19:15:49Z</time>
      </trkpt>
      <trkpt lat="43.94927" lon="1.86788">
        <ele>226</ele>
        <time>2018-08-16T19:15:56Z</time>
      </trkpt>
      <trkpt lat="43.94935" lon="1.86782">
        <ele>232</ele>
        <time>2018-08-16T19:16:02Z</time>
      </trkpt>
      <trkpt lat="43.94944" lon="1.86773">
        <ele>238</ele>
        <time>2018-08-16T19:16:08Z</time>
      </trkpt>
      <trkpt lat="43.94951" lon="1.86764">
        <ele>241</ele>
        <time>2018-08-16T19:16:14Z</time>
      </trkpt>
      <trkpt lat="43.94958" lon="1.86756">
        <ele>244</ele>
        <time>2018-08-16T19:16:20Z</time>
      </trkpt>
      <trkpt lat="43.94964" lon="1.86746">
        <ele>245</ele>
        <time>2018-08-16T19:16:26Z</time>
      </trkpt>
      <trkpt lat="43.94971" lon="1.86736">
        <ele>245</ele>
        <time>2018-08-16T19:16:32Z</time>
      </trkpt>
      <trkpt lat="43.94979" lon="1.86728">
        <ele>245</ele>
        <time>2018-08-16T19:16:39Z</time>
      </trkpt>
      <trkpt lat="43.94984" lon="1.86719">
        <ele>245</ele>
        <time>2018-08-16T19:16:46Z</time>
      </trkpt>
      <trkpt lat="43.94989" lon="1.86711">
        <ele>245</ele>
        <time>2018-08-16T19:16:52Z</time>
      </trkpt>
      <trkpt lat="43.94994" lon="1.86703">
        <ele>245</ele>
        <time>2018-08-16T19:16:58Z</time>
      </trkpt>
      <trkpt lat="43.94999" lon="1.86696">
        <ele>248</ele>
        <time>2018-08-16T19:17:04Z</time>
      </trkpt>
      <trkpt lat="43.95004" lon="1.86689">
        <ele>250</ele>
        <time>2018-08-16T19:17:10Z</time>
      </trkpt>
      <trkpt lat="43.95008" lon="1.86683">
        <ele>251</ele>
        <time>2018-08-16T19:17:16Z</time>
      </trkpt>
      <trkpt lat="43.95015" lon="1.86674">
        <ele>252</ele>
        <time>2018-08-16T19:17:22Z</time>
      </trkpt>
      <trkpt lat="43.95021" lon="1.86668">
        <ele>252</ele>
        <time>2018-08-16T19:17:28Z</time>
      </trkpt>
      <trkpt lat="43.95024" lon="1.8666">
        <ele>252</ele>
        <time>2018-08-16T19:17:34Z</time>
      </trkpt>
      <trkpt lat="43.9503" lon="1.86652">
        <ele>252</ele>
        <time>2018-08-16T19:17:40Z</time>
      </trkpt>
      <trkpt lat="43.95034" lon="1.86642">
        <ele>252</ele>
        <time>2018-08-16T19:17:46Z</time>
      </trkpt>
      <trkpt lat="43.95036" lon="1.86633">
        <ele>252</ele>
        <time>2018-08-16T19:17:52Z</time>
      </trkpt>
      <trkpt lat="43.95036" lon="1.86624">
        <ele>252</ele>
        <time>2018-08-16T19:17:58Z</time>
      </trkpt>
      <trkpt lat="43.95035" lon="1.86615">
        <ele>252</ele>
        <time>2018-08-16T19:18:04Z</time>
      </trkpt>
      <trkpt lat="43.95032" lon="1.86607">
        <ele>252</ele>
        <time>2018-08-16T19:18:10Z</time>
      </trkpt>
      <trkpt lat="43.95031" lon="1.86598">
        <ele>252</ele>
        <time>2018-08-16T19:18:16Z</time>
      </trkpt>
      <trkpt lat="43.9503" lon="1.86587">
        <ele>252</ele>
        <time>2018-08-16T19:18:23Z</time>
      </trkpt>
      <trkpt lat="43.95028" lon="1.86578">
        <ele>255</ele>
        <time>2018-08-16T19:18:29Z</time>
      </trkpt>
      <trkpt lat="43.95029" lon="1.86569">
        <ele>256</ele>
        <time>2018-08-16T19:18:35Z</time>
      </trkpt>
      <trkpt lat="43.95031" lon="1.86555">
        <ele>256</ele>
        <time>2018-08-16T19:18:41Z</time>
      </trkpt>
      <trkpt lat="43.95037" lon="1.86542">
        <ele>256</ele>
        <time>2018-08-16T19:18:47Z</time>
      </trkpt>
      <trkpt lat="43.95045" lon="1.86534">
        <ele>256</ele>
        <time>2018-08-16T19:18:54Z</time>
      </trkpt>
      <trkpt lat="43.95054" lon="1.86536">
        <ele>256</ele>
        <time>2018-08-16T19:19:01Z</time>
      </trkpt>
      <trkpt lat="43.95061" lon="1.86541">
        <ele>256</ele>
        <time>2018-08-16T19:19:07Z</time>
      </trkpt>
      <trkpt lat="43.95071" lon="1.86549">
        <ele>256</ele>
        <time>2018-08-16T19:19:13Z</time>
      </trkpt>
      <trkpt lat="43.95082" lon="1.86558">
        <ele>255</ele>
        <time>2018-08-16T19:19:19Z</time>
      </trkpt>
      <trkpt lat="43.95092" lon="1.86567">
        <ele>255</ele>
        <time>2018-08-16T19:19:25Z</time>
      </trkpt>
      <trkpt lat="43.95102" lon="1.86576">
        <ele>255</ele>
        <time>2018-08-16T19:19:31Z</time>
      </trkpt>
      <trkpt lat="43.9511" lon="1.86587">
        <ele>255</ele>
        <time>2018-08-16T19:19:37Z</time>
      </trkpt>
      <trkpt lat="43.95119" lon="1.86597">
        <ele>255</ele>
        <time>2018-08-16T19:19:43Z</time>
      </trkpt>
      <trkpt lat="43.95127" lon="1.86607">
        <ele>255</ele>
        <time>2018-08-16T19:19:49Z</time>
      </trkpt>
      <trkpt lat="43.95135" lon="1.86619">
        <ele>256</ele>
        <time>2018-08-16T19:19:55Z</time>
      </trkpt>
      <trkpt lat="43.95144" lon="1.86635">
        <ele>257</ele>
        <time>2018-08-16T19:20:01Z</time>
      </trkpt>
      <trkpt lat="43.95153" lon="1.86649">
        <ele>259</ele>
        <time>2018-08-16T19:20:07Z</time>
      </trkpt>
      <trkpt lat="43.95163" lon="1.86664">
        <ele>260</ele>
        <time>2018-08-16T19:20:13Z</time>
      </trkpt>
      <trkpt lat="43.95173" lon="1.8668">
        <ele>260</ele>
        <time>2018-08-16T19:20:19Z</time>
      </trkpt>
      <trkpt lat="43.95182" lon="1.86695">
        <ele>261</ele>
        <time>2018-08-16T19:20:25Z</time>
      </trkpt>
      <trkpt lat="43.95193" lon="1.86714">
        <ele>261</ele>
        <time>2018-08-16T19:20:31Z</time>
      </trkpt>
      <trkpt lat="43.95206" lon="1.86733">
        <ele>261</ele>
        <time>2018-08-16T19:20:37Z</time>
      </trkpt>
      <trkpt lat="43.95217" lon="1.86754">
        <ele>261</ele>
        <time>2018-08-16T19:20:43Z</time>
      </trkpt>
      <trkpt lat="43.95229" lon="1.86775">
        <ele>261</ele>
        <time>2018-08-16T19:20:49Z</time>
      </trkpt>
      <trkpt lat="43.95239" lon="1.86796">
        <ele>261</ele>
        <time>2018-08-16T19:20:55Z</time>
      </trkpt>
      <trkpt lat="43.95249" lon="1.8682">
        <ele>261</ele>
        <time>2018-08-16T19:21:01Z</time>
      </trkpt>
      <trkpt lat="43.95261" lon="1.86841">
        <ele>261</ele>
        <time>2018-08-16T19:21:07Z</time>
      </trkpt>
      <trkpt lat="43.95271" lon="1.8686">
        <ele>261</ele>
        <time>2018-08-16T19:21:13Z</time>
      </trkpt>
      <trkpt lat="43.95282" lon="1.86879">
        <ele>261</ele>
        <time>2018-08-16T19:21:19Z</time>
      </trkpt>
      <trkpt lat="43.95293" lon="1.86896">
        <ele>262</ele>
        <time>2018-08-16T19:21:25Z</time>
      </trkpt>
      <trkpt lat="43.95304" lon="1.86908">
        <ele>263</ele>
        <time>2018-08-16T19:21:31Z</time>
      </trkpt>
      <trkpt lat="43.95307" lon="1.86897">
        <ele>265</ele>
        <time>2018-08-16T19:21:37Z</time>
      </trkpt>
      <trkpt lat="43.95311" lon="1.86879">
        <ele>268</ele>
        <time>2018-08-16T19:21:43Z</time>
      </trkpt>
      <trkpt lat="43.9532" lon="1.86859">
        <ele>268</ele>
        <time>2018-08-16T19:21:49Z</time>
      </trkpt>
      <trkpt lat="43.95324" lon="1.86854">
        <ele>269</ele>
        <time>2018-08-16T19:21:55Z</time>
      </trkpt>
      <trkpt lat="43.95327" lon="1.86854">
        <ele>270</ele>
        <time>2018-08-16T19:22:01Z</time>
      </trkpt>
      <trkpt lat="43.95331" lon="1.86853">
        <ele>270</ele>
        <time>2018-08-16T19:22:08Z</time>
      </trkpt>
      <trkpt lat="43.9533" lon="1.86849">
        <ele>270</ele>
        <time>2018-08-16T19:22:17Z</time>
      </trkpt>
      <trkpt lat="43.9533" lon="1.86851">
        <ele>271</ele>
        <time>2018-08-16T19:22:26Z</time>
      </trkpt>
      <trkpt lat="43.95333" lon="1.86849">
        <ele>274</ele>
        <time>2018-08-16T19:22:32Z</time>
      </trkpt>
      <trkpt lat="43.95333" lon="1.8685">
        <ele>274</ele>
        <time>2018-08-16T19:22:38Z</time>
      </trkpt>
      <trkpt lat="43.95331" lon="1.8685">
        <ele>276</ele>
        <time>2018-08-16T19:22:48Z</time>
      </trkpt>
      <trkpt lat="43.9533" lon="1.86848">
        <ele>277</ele>
        <time>2018-08-16T19:22:54Z</time>
      </trkpt>
      <trkpt lat="43.95331" lon="1.86847">
        <ele>277</ele>
        <time>2018-08-16T19:23:01Z</time>
      </trkpt>
    </trkseg>
  </trk>
</gpx>